<?xml version='1.0' encoding='UTF-8'?><gpx version="1.1" creator="JPX - https://github.com/jenetics/jpx" xmlns="http://www.topografix.com/GPX/1/1"><trk><trkseg><trkpt lat="36.8498372" lon="15.1093124"><ele>9.000000000000002</ele><time>2026-04-08T14:01:04.006Z</time></trkpt><trkpt lat="36.8497683" lon="15.1093205"><ele>9.0</ele><time>2026-04-08T14:01:08.005Z</time></trkpt><trkpt lat="36.8496921" lon="15.1093257"><ele>9.0</ele><time>2026-04-08T14:01:14.004Z</time></trkpt><trkpt lat="36.8496399" lon="15.1092815"><ele>9.0</ele><time>2026-04-08T14:01:19.006Z</time></trkpt><trkpt lat="36.8495721" lon="15.1092781"><ele>9.0</ele><time>2026-04-08T14:01:24.005Z</time></trkpt><trkpt lat="36.8495033" lon="15.1092591"><ele>9.000000000000002</ele><time>2026-04-08T14:01:30.183Z</time></trkpt><trkpt lat="36.8495683" lon="15.1092198"><ele>9.0</ele><time>2026-04-08T14:01:34.308Z</time></trkpt><trkpt lat="36.8496372" lon="15.109203"><ele>9.000000000000002</ele><time>2026-04-08T14:01:40.355Z</time></trkpt><trkpt lat="36.8497069" lon="15.1092242"><ele>9.0</ele><time>2026-04-08T14:01:45.12Z</time></trkpt><trkpt lat="36.8497782" lon="15.1092458"><ele>9.0</ele><time>2026-04-08T14:01:49.893Z</time></trkpt><trkpt lat="36.8498503" lon="15.1092485"><ele>9.0</ele><time>2026-04-08T14:01:55.589Z</time></trkpt><trkpt lat="36.849916" lon="15.1092522"><ele>9.0</ele><time>2026-04-08T14:02:00.028Z</time></trkpt><trkpt lat="36.8499728" lon="15.1092887"><ele>9.000000000000002</ele><time>2026-04-08T14:02:05.971Z</time></trkpt><trkpt lat="36.8499882" lon="15.1093719"><ele>9.0</ele><time>2026-04-08T14:02:11.808Z</time></trkpt><trkpt lat="36.8498995" lon="15.1093754"><ele>9.000000000000002</ele><time>2026-04-08T14:02:31.927Z</time></trkpt><trkpt lat="36.8498284" lon="15.1093795"><ele>9.0</ele><time>2026-04-08T14:02:37.173Z</time></trkpt><trkpt lat="36.8497663" lon="15.1093603"><ele>9.0</ele><time>2026-04-08T14:02:45.004Z</time></trkpt><trkpt lat="36.8497036" lon="15.1093747"><ele>9.0</ele><time>2026-04-08T14:02:50.845Z</time></trkpt><trkpt lat="36.849631" lon="15.1093957"><ele>9.0</ele><time>2026-04-08T14:02:57.004Z</time></trkpt><trkpt lat="36.8495541" lon="15.10937"><ele>9.000000000000002</ele><time>2026-04-08T14:03:02.43Z</time></trkpt><trkpt lat="36.8494864" lon="15.1093514"><ele>9.0</ele><time>2026-04-08T14:03:06.688Z</time></trkpt><trkpt lat="36.8494132" lon="15.1093084"><ele>9.000000000000002</ele><time>2026-04-08T14:03:12.552Z</time></trkpt><trkpt lat="36.8493517" lon="15.1092729"><ele>9.0</ele><time>2026-04-08T14:03:17.874Z</time></trkpt><trkpt lat="36.8492946" lon="15.1092241"><ele>9.0</ele><time>2026-04-08T14:03:23.163Z</time></trkpt><trkpt lat="36.8492299" lon="15.1092085"><ele>9.0</ele><time>2026-04-08T14:03:28.004Z</time></trkpt><trkpt lat="36.8491563" lon="15.109234"><ele>9.0</ele><time>2026-04-08T14:03:32.171Z</time></trkpt><trkpt lat="36.8491147" lon="15.1092937"><ele>9.000000000000002</ele><time>2026-04-08T14:03:35.91Z</time></trkpt><trkpt lat="36.849052" lon="15.1093098"><ele>9.0</ele><time>2026-04-08T14:03:40.173Z</time></trkpt><trkpt lat="36.848993" lon="15.1092366"><ele>9.0</ele><time>2026-04-08T14:03:45.005Z</time></trkpt><trkpt lat="36.8489359" lon="15.1091366"><ele>9.0</ele><time>2026-04-08T14:03:48.871Z</time></trkpt><trkpt lat="36.8488696" lon="15.1091293"><ele>9.0</ele><time>2026-04-08T14:03:54.389Z</time></trkpt><trkpt lat="36.8488342" lon="15.1092148"><ele>9.0</ele><time>2026-04-08T14:03:59.928Z</time></trkpt><trkpt lat="36.8488211" lon="15.1093025"><ele>9.0</ele><time>2026-04-08T14:04:06.181Z</time></trkpt><trkpt lat="36.8487703" lon="15.1093813"><ele>9.0</ele><time>2026-04-08T14:04:12.193Z</time></trkpt><trkpt lat="36.8487285" lon="15.1094653"><ele>9.000000000000002</ele><time>2026-04-08T14:04:16.005Z</time></trkpt><trkpt lat="36.8487499" lon="15.1095473"><ele>9.0</ele><time>2026-04-08T14:04:20.004Z</time></trkpt><trkpt lat="36.8487094" lon="15.1096185"><ele>9.0</ele><time>2026-04-08T14:04:29.005Z</time></trkpt><trkpt lat="36.8487027" lon="15.1096972"><ele>9.0</ele><time>2026-04-08T14:04:35.005Z</time></trkpt><trkpt lat="36.848733" lon="15.109778"><ele>9.0</ele><time>2026-04-08T14:04:41.005Z</time></trkpt><trkpt lat="36.8487222" lon="15.1098568"><ele>9.000000000000002</ele><time>2026-04-08T14:04:47.005Z</time></trkpt><trkpt lat="36.848643" lon="15.1098625"><ele>9.0</ele><time>2026-04-08T14:04:52.005Z</time></trkpt><trkpt lat="36.8485752" lon="15.1098597"><ele>9.142857142857144</ele><time>2026-04-08T14:04:56.004Z</time></trkpt><trkpt lat="36.8485343" lon="15.1099387"><ele>9.285714285714286</ele><time>2026-04-08T14:05:01.004Z</time></trkpt><trkpt lat="36.8484848" lon="15.1100096"><ele>9.428571428571429</ele><time>2026-04-08T14:05:07.006Z</time></trkpt><trkpt lat="36.848459" lon="15.1100829"><ele>9.571428571428573</ele><time>2026-04-08T14:05:12.13Z</time></trkpt><trkpt lat="36.8484409" lon="15.1101719"><ele>9.714285714285715</ele><time>2026-04-08T14:05:18.125Z</time></trkpt><trkpt lat="36.8484047" lon="15.1102485"><ele>9.857142857142858</ele><time>2026-04-08T14:05:23.006Z</time></trkpt><trkpt lat="36.8483789" lon="15.1103362"><ele>10.0</ele><time>2026-04-08T14:05:29.18Z</time></trkpt><trkpt lat="36.8483257" lon="15.1103999"><ele>10.0</ele><time>2026-04-08T14:05:35.652Z</time></trkpt><trkpt lat="36.848287" lon="15.1104679"><ele>10.0</ele><time>2026-04-08T14:05:41.954Z</time></trkpt><trkpt lat="36.8483094" lon="15.1105422"><ele>10.0</ele><time>2026-04-08T14:05:48.005Z</time></trkpt><trkpt lat="36.8483368" lon="15.1106143"><ele>10.0</ele><time>2026-04-08T14:05:54.005Z</time></trkpt><trkpt lat="36.8483233" lon="15.1106978"><ele>10.0</ele><time>2026-04-08T14:05:59.931Z</time></trkpt><trkpt lat="36.8482864" lon="15.110762"><ele>10.0</ele><time>2026-04-08T14:06:05.005Z</time></trkpt><trkpt lat="36.8482492" lon="15.1108271"><ele>10.0</ele><time>2026-04-08T14:06:10.022Z</time></trkpt><trkpt lat="36.8482524" lon="15.110906"><ele>9.857142857142858</ele><time>2026-04-08T14:06:15.989Z</time></trkpt><trkpt lat="36.8482934" lon="15.110966"><ele>9.714285714285715</ele><time>2026-04-08T14:06:22.006Z</time></trkpt><trkpt lat="36.8483517" lon="15.1109977"><ele>9.571428571428573</ele><time>2026-04-08T14:06:28.006Z</time></trkpt><trkpt lat="36.8483108" lon="15.1110706"><ele>9.428571428571429</ele><time>2026-04-08T14:06:33.984Z</time></trkpt><trkpt lat="36.8482477" lon="15.1110937"><ele>9.285714285714286</ele><time>2026-04-08T14:06:38.95Z</time></trkpt><trkpt lat="36.84823" lon="15.1111832"><ele>9.142857142857144</ele><time>2026-04-08T14:06:43.95Z</time></trkpt><trkpt lat="36.8481936" lon="15.1112591"><ele>9.0</ele><time>2026-04-08T14:06:50.004Z</time></trkpt><trkpt lat="36.8481328" lon="15.1113068"><ele>9.000000000000002</ele><time>2026-04-08T14:06:55.971Z</time></trkpt><trkpt lat="36.8480625" lon="15.1113342"><ele>9.0</ele><time>2026-04-08T14:07:02.004Z</time></trkpt><trkpt lat="36.8480084" lon="15.1113788"><ele>9.0</ele><time>2026-04-08T14:07:07.008Z</time></trkpt><trkpt lat="36.8479377" lon="15.1113828"><ele>9.0</ele><time>2026-04-08T14:07:11.004Z</time></trkpt><trkpt lat="36.8478704" lon="15.111406"><ele>9.0</ele><time>2026-04-08T14:07:15.911Z</time></trkpt><trkpt lat="36.847803" lon="15.1114171"><ele>9.000000000000002</ele><time>2026-04-08T14:07:21.015Z</time></trkpt><trkpt lat="36.8477317" lon="15.1114365"><ele>9.0</ele><time>2026-04-08T14:07:25.955Z</time></trkpt><trkpt lat="36.8476854" lon="15.111504"><ele>9.000000000000002</ele><time>2026-04-08T14:07:30.909Z</time></trkpt><trkpt lat="36.8476376" lon="15.1115681"><ele>9.0</ele><time>2026-04-08T14:07:36.03Z</time></trkpt><trkpt lat="36.847576" lon="15.1115502"><ele>9.0</ele><time>2026-04-08T14:07:41.707Z</time></trkpt><trkpt lat="36.847515" lon="15.1115103"><ele>9.0</ele><time>2026-04-08T14:07:47.186Z</time></trkpt><trkpt lat="36.8474447" lon="15.1115286"><ele>9.0</ele><time>2026-04-08T14:07:54.101Z</time></trkpt><trkpt lat="36.8473815" lon="15.1115551"><ele>9.000000000000002</ele><time>2026-04-08T14:08:00.949Z</time></trkpt><trkpt lat="36.8473118" lon="15.1115568"><ele>9.0</ele><time>2026-04-08T14:08:07.868Z</time></trkpt><trkpt lat="36.8472361" lon="15.1115683"><ele>9.428571428571429</ele><time>2026-04-08T14:08:13.368Z</time></trkpt><trkpt lat="36.847168" lon="15.1115853"><ele>9.857142857142858</ele><time>2026-04-08T14:08:18.134Z</time></trkpt><trkpt lat="36.8470968" lon="15.1115557"><ele>10.285714285714285</ele><time>2026-04-08T14:08:24.004Z</time></trkpt><trkpt lat="36.8470335" lon="15.1115521"><ele>10.714285714285715</ele><time>2026-04-08T14:08:29.027Z</time></trkpt><trkpt lat="36.8469695" lon="15.1115097"><ele>11.142857142857142</ele><time>2026-04-08T14:08:36.054Z</time></trkpt><trkpt lat="36.8469288" lon="15.1114411"><ele>11.571428571428571</ele><time>2026-04-08T14:08:43.003Z</time></trkpt><trkpt lat="36.8468795" lon="15.1113893"><ele>12.0</ele><time>2026-04-08T14:08:49.137Z</time></trkpt><trkpt lat="36.846813" lon="15.1113796"><ele>11.857142857142856</ele><time>2026-04-08T14:08:56.004Z</time></trkpt><trkpt lat="36.846744" lon="15.1113652"><ele>11.714285714285714</ele><time>2026-04-08T14:09:02.003Z</time></trkpt><trkpt lat="36.8466823" lon="15.1113336"><ele>11.571428571428571</ele><time>2026-04-08T14:09:08.335Z</time></trkpt><trkpt lat="36.8466196" lon="15.11129"><ele>11.428571428571427</ele><time>2026-04-08T14:09:14.15Z</time></trkpt><trkpt lat="36.8465604" lon="15.1112289"><ele>11.285714285714285</ele><time>2026-04-08T14:09:20.127Z</time></trkpt><trkpt lat="36.8464987" lon="15.1112096"><ele>11.142857142857142</ele><time>2026-04-08T14:09:26.952Z</time></trkpt><trkpt lat="36.846437" lon="15.1111709"><ele>11.0</ele><time>2026-04-08T14:09:33.004Z</time></trkpt><trkpt lat="36.8463904" lon="15.1111041"><ele>11.0</ele><time>2026-04-08T14:09:38.003Z</time></trkpt><trkpt lat="36.8463521" lon="15.1110189"><ele>11.0</ele><time>2026-04-08T14:09:43.004Z</time></trkpt><trkpt lat="36.8462991" lon="15.1109508"><ele>11.0</ele><time>2026-04-08T14:09:49.029Z</time></trkpt><trkpt lat="36.8462432" lon="15.1109085"><ele>11.0</ele><time>2026-04-08T14:09:53.003Z</time></trkpt><trkpt lat="36.8461925" lon="15.1108476"><ele>11.0</ele><time>2026-04-08T14:09:58.004Z</time></trkpt><trkpt lat="36.8461399" lon="15.1107949"><ele>11.0</ele><time>2026-04-08T14:10:03.494Z</time></trkpt><trkpt lat="36.8461156" lon="15.1107079"><ele>11.0</ele><time>2026-04-08T14:10:09.004Z</time></trkpt><trkpt lat="36.8460805" lon="15.1106371"><ele>10.428571428571429</ele><time>2026-04-08T14:10:14.648Z</time></trkpt><trkpt lat="36.8460364" lon="15.110549"><ele>9.857142857142858</ele><time>2026-04-08T14:10:21.121Z</time></trkpt><trkpt lat="36.8459733" lon="15.1105015"><ele>9.285714285714285</ele><time>2026-04-08T14:10:27.179Z</time></trkpt><trkpt lat="36.8459329" lon="15.1104353"><ele>8.714285714285715</ele><time>2026-04-08T14:10:32.675Z</time></trkpt><trkpt lat="36.8459026" lon="15.1103509"><ele>8.142857142857142</ele><time>2026-04-08T14:10:38.17Z</time></trkpt><trkpt lat="36.8458544" lon="15.110277"><ele>7.571428571428571</ele><time>2026-04-08T14:10:45.123Z</time></trkpt><trkpt lat="36.8458106" lon="15.1102086"><ele>7.0</ele><time>2026-04-08T14:10:49.974Z</time></trkpt><trkpt lat="36.8457472" lon="15.1101805"><ele>7.0</ele><time>2026-04-08T14:10:55.162Z</time></trkpt><trkpt lat="36.8457119" lon="15.1101016"><ele>7.0</ele><time>2026-04-08T14:11:01.873Z</time></trkpt><trkpt lat="36.845682" lon="15.1100303"><ele>7.0</ele><time>2026-04-08T14:11:07.287Z</time></trkpt><trkpt lat="36.8456592" lon="15.1099427"><ele>7.0</ele><time>2026-04-08T14:11:13.162Z</time></trkpt><trkpt lat="36.8456307" lon="15.1098608"><ele>7.0</ele><time>2026-04-08T14:11:18.747Z</time></trkpt><trkpt lat="36.8456266" lon="15.1097704"><ele>7.0</ele><time>2026-04-08T14:11:25.003Z</time></trkpt><trkpt lat="36.8456158" lon="15.1096889"><ele>7.0</ele><time>2026-04-08T14:11:31.004Z</time></trkpt><trkpt lat="36.8455582" lon="15.1096343"><ele>6.857142857142857</ele><time>2026-04-08T14:11:38.925Z</time></trkpt><trkpt lat="36.8454953" lon="15.1096014"><ele>6.714285714285714</ele><time>2026-04-08T14:11:45.755Z</time></trkpt><trkpt lat="36.8454242" lon="15.1096041"><ele>6.571428571428571</ele><time>2026-04-08T14:11:52.613Z</time></trkpt><trkpt lat="36.8453514" lon="15.1095879"><ele>6.428571428571429</ele><time>2026-04-08T14:11:59.948Z</time></trkpt><trkpt lat="36.8452831" lon="15.1095908"><ele>6.285714285714286</ele><time>2026-04-08T14:12:07.968Z</time></trkpt><trkpt lat="36.8452157" lon="15.1095783"><ele>6.142857142857142</ele><time>2026-04-08T14:12:15.948Z</time></trkpt><trkpt lat="36.8451534" lon="15.1095468"><ele>6.0</ele><time>2026-04-08T14:12:23.006Z</time></trkpt><trkpt lat="36.8450966" lon="15.1095067"><ele>5.999999999999999</ele><time>2026-04-08T14:12:28.194Z</time></trkpt><trkpt lat="36.8450372" lon="15.1094749"><ele>6.0</ele><time>2026-04-08T14:12:36.162Z</time></trkpt><trkpt lat="36.8449672" lon="15.1094609"><ele>6.0</ele><time>2026-04-08T14:12:44.164Z</time></trkpt><trkpt lat="36.8448931" lon="15.1094674"><ele>6.0</ele><time>2026-04-08T14:12:52.178Z</time></trkpt><trkpt lat="36.8448202" lon="15.1094727"><ele>6.0</ele><time>2026-04-08T14:12:59.928Z</time></trkpt><trkpt lat="36.8447578" lon="15.1094903"><ele>5.999999999999999</ele><time>2026-04-08T14:13:06.003Z</time></trkpt><trkpt lat="36.8446973" lon="15.1095322"><ele>6.0</ele><time>2026-04-08T14:13:13.688Z</time></trkpt><trkpt lat="36.8446324" lon="15.1095378"><ele>5.999999999999999</ele><time>2026-04-08T14:13:19.99Z</time></trkpt><trkpt lat="36.8445655" lon="15.1095116"><ele>6.0</ele><time>2026-04-08T14:13:26.005Z</time></trkpt><trkpt lat="36.8445025" lon="15.1094729"><ele>6.0</ele><time>2026-04-08T14:13:31.004Z</time></trkpt><trkpt lat="36.8444402" lon="15.1094366"><ele>6.0</ele><time>2026-04-08T14:13:37.004Z</time></trkpt><trkpt lat="36.8443814" lon="15.1094008"><ele>6.0</ele><time>2026-04-08T14:13:43.004Z</time></trkpt><trkpt lat="36.8443334" lon="15.1093426"><ele>5.999999999999999</ele><time>2026-04-08T14:13:49.004Z</time></trkpt><trkpt lat="36.8442883" lon="15.1092799"><ele>6.0</ele><time>2026-04-08T14:13:55.004Z</time></trkpt><trkpt lat="36.8442251" lon="15.1092392"><ele>5.7142857142857135</ele><time>2026-04-08T14:14:01.905Z</time></trkpt><trkpt lat="36.8441709" lon="15.1091816"><ele>5.428571428571429</ele><time>2026-04-08T14:14:09.004Z</time></trkpt><trkpt lat="36.844115" lon="15.1091307"><ele>5.142857142857142</ele><time>2026-04-08T14:14:15.004Z</time></trkpt><trkpt lat="36.8440508" lon="15.1091039"><ele>4.857142857142857</ele><time>2026-04-08T14:14:21.003Z</time></trkpt><trkpt lat="36.8439927" lon="15.1090662"><ele>4.571428571428571</ele><time>2026-04-08T14:14:27.005Z</time></trkpt><trkpt lat="36.8439265" lon="15.1090239"><ele>4.285714285714286</ele><time>2026-04-08T14:14:33.967Z</time></trkpt><trkpt lat="36.843873" lon="15.1089777"><ele>4.0</ele><time>2026-04-08T14:14:39.005Z</time></trkpt><trkpt lat="36.8437871" lon="15.1089594"><ele>4.0</ele><time>2026-04-08T14:14:46.114Z</time></trkpt><trkpt lat="36.8437181" lon="15.1090067"><ele>3.9999999999999996</ele><time>2026-04-08T14:14:52.926Z</time></trkpt><trkpt lat="36.8437066" lon="15.1090924"><ele>4.0</ele><time>2026-04-08T14:14:59.004Z</time></trkpt><trkpt lat="36.8436921" lon="15.109173"><ele>4.0</ele><time>2026-04-08T14:15:06.005Z</time></trkpt><trkpt lat="36.8436843" lon="15.109253"><ele>3.9999999999999996</ele><time>2026-04-08T14:15:23.124Z</time></trkpt><trkpt lat="36.8436049" lon="15.1092423"><ele>4.0</ele><time>2026-04-08T14:15:37.004Z</time></trkpt><trkpt lat="36.8435299" lon="15.1092303"><ele>4.0</ele><time>2026-04-08T14:15:41.003Z</time></trkpt><trkpt lat="36.8434653" lon="15.1092416"><ele>4.142857142857142</ele><time>2026-04-08T14:15:46.004Z</time></trkpt><trkpt lat="36.8434173" lon="15.1093033"><ele>4.285714285714286</ele><time>2026-04-08T14:15:51.21Z</time></trkpt><trkpt lat="36.8433748" lon="15.10937"><ele>4.428571428571429</ele><time>2026-04-08T14:15:55.707Z</time></trkpt><trkpt lat="36.8433109" lon="15.1094043"><ele>4.571428571428571</ele><time>2026-04-08T14:16:04.125Z</time></trkpt><trkpt lat="36.8432564" lon="15.1094441"><ele>4.714285714285714</ele><time>2026-04-08T14:16:12.004Z</time></trkpt><trkpt lat="36.8431864" lon="15.1094779"><ele>4.857142857142857</ele><time>2026-04-08T14:16:16.988Z</time></trkpt><trkpt lat="36.8431106" lon="15.1094792"><ele>5.0</ele><time>2026-04-08T14:16:22.141Z</time></trkpt><trkpt lat="36.8430354" lon="15.1094731"><ele>5.0</ele><time>2026-04-08T14:16:29.212Z</time></trkpt><trkpt lat="36.8429642" lon="15.1094525"><ele>5.0</ele><time>2026-04-08T14:16:34.004Z</time></trkpt><trkpt lat="36.8429018" lon="15.1094262"><ele>5.0</ele><time>2026-04-08T14:16:40.004Z</time></trkpt><trkpt lat="36.8428239" lon="15.109413"><ele>5.0</ele><time>2026-04-08T14:16:47.003Z</time></trkpt><trkpt lat="36.8427583" lon="15.1094191"><ele>5.0</ele><time>2026-04-08T14:16:53.002Z</time></trkpt><trkpt lat="36.8426962" lon="15.1094026"><ele>5.0</ele><time>2026-04-08T14:16:58.003Z</time></trkpt><trkpt lat="36.8426205" lon="15.1093965"><ele>5.0</ele><time>2026-04-08T14:17:02.985Z</time></trkpt><trkpt lat="36.8425469" lon="15.1093928"><ele>5.857142857142857</ele><time>2026-04-08T14:17:10.011Z</time></trkpt><trkpt lat="36.842488" lon="15.1093634"><ele>6.714285714285714</ele><time>2026-04-08T14:17:16.002Z</time></trkpt><trkpt lat="36.8424246" lon="15.1093427"><ele>7.571428571428571</ele><time>2026-04-08T14:17:22.003Z</time></trkpt><trkpt lat="36.8423595" lon="15.109317"><ele>8.428571428571429</ele><time>2026-04-08T14:17:28.003Z</time></trkpt><trkpt lat="36.8422963" lon="15.1093018"><ele>9.285714285714285</ele><time>2026-04-08T14:17:33.002Z</time></trkpt><trkpt lat="36.8422254" lon="15.1092941"><ele>10.142857142857142</ele><time>2026-04-08T14:17:39.003Z</time></trkpt><trkpt lat="36.8421562" lon="15.1092891"><ele>11.0</ele><time>2026-04-08T14:17:46.002Z</time></trkpt><trkpt lat="36.8420945" lon="15.1092474"><ele>11.0</ele><time>2026-04-08T14:17:54.004Z</time></trkpt><trkpt lat="36.8420359" lon="15.1092156"><ele>11.0</ele><time>2026-04-08T14:18:03.002Z</time></trkpt><trkpt lat="36.8420349" lon="15.1092976"><ele>11.0</ele><time>2026-04-08T14:18:18.003Z</time></trkpt><trkpt lat="36.8419915" lon="15.109239"><ele>11.0</ele><time>2026-04-08T14:18:32.003Z</time></trkpt><trkpt lat="36.8419379" lon="15.1091767"><ele>11.0</ele><time>2026-04-08T14:18:38.003Z</time></trkpt><trkpt lat="36.8418647" lon="15.1091802"><ele>11.0</ele><time>2026-04-08T14:18:43.004Z</time></trkpt><trkpt lat="36.8417948" lon="15.1092138"><ele>11.0</ele><time>2026-04-08T14:18:47.927Z</time></trkpt><trkpt lat="36.841724" lon="15.1092141"><ele>10.714285714285715</ele><time>2026-04-08T14:18:53.002Z</time></trkpt><trkpt lat="36.8416517" lon="15.1092284"><ele>10.428571428571429</ele><time>2026-04-08T14:19:04.911Z</time></trkpt><trkpt lat="36.8415983" lon="15.1091724"><ele>10.142857142857142</ele><time>2026-04-08T14:19:11.004Z</time></trkpt><trkpt lat="36.8415652" lon="15.1090877"><ele>9.857142857142858</ele><time>2026-04-08T14:19:18.14Z</time></trkpt><trkpt lat="36.8415215" lon="15.1090294"><ele>9.571428571428571</ele><time>2026-04-08T14:19:24.674Z</time></trkpt><trkpt lat="36.8414879" lon="15.1089548"><ele>9.285714285714286</ele><time>2026-04-08T14:19:30.967Z</time></trkpt><trkpt lat="36.8414492" lon="15.1088886"><ele>9.0</ele><time>2026-04-08T14:19:38.003Z</time></trkpt><trkpt lat="36.8414258" lon="15.1088041"><ele>9.000000000000002</ele><time>2026-04-08T14:19:45.031Z</time></trkpt><trkpt lat="36.8414051" lon="15.108722"><ele>9.0</ele><time>2026-04-08T14:19:51.063Z</time></trkpt><trkpt lat="36.8413472" lon="15.1086798"><ele>9.0</ele><time>2026-04-08T14:19:58.125Z</time></trkpt><trkpt lat="36.8412865" lon="15.1086297"><ele>9.0</ele><time>2026-04-08T14:20:05.107Z</time></trkpt><trkpt lat="36.8412277" lon="15.1085743"><ele>9.0</ele><time>2026-04-08T14:20:10.908Z</time></trkpt><trkpt lat="36.8411677" lon="15.1085351"><ele>9.000000000000002</ele><time>2026-04-08T14:20:16.547Z</time></trkpt><trkpt lat="36.8411145" lon="15.1084585"><ele>9.0</ele><time>2026-04-08T14:21:11.002Z</time></trkpt><trkpt lat="36.8410775" lon="15.1083898"><ele>9.000000000000002</ele><time>2026-04-08T14:21:14.003Z</time></trkpt><trkpt lat="36.8410355" lon="15.1083215"><ele>9.0</ele><time>2026-04-08T14:21:20.002Z</time></trkpt><trkpt lat="36.8409772" lon="15.1082839"><ele>9.0</ele><time>2026-04-08T14:21:24.931Z</time></trkpt><trkpt lat="36.8409259" lon="15.1082212"><ele>9.0</ele><time>2026-04-08T14:21:32.002Z</time></trkpt><trkpt lat="36.8409005" lon="15.1081443"><ele>9.0</ele><time>2026-04-08T14:21:37.973Z</time></trkpt><trkpt lat="36.8408541" lon="15.108076"><ele>9.000000000000002</ele><time>2026-04-08T14:21:44.004Z</time></trkpt><trkpt lat="36.8408225" lon="15.1079936"><ele>9.0</ele><time>2026-04-08T14:21:50.003Z</time></trkpt><trkpt lat="36.8407999" lon="15.1079184"><ele>8.857142857142858</ele><time>2026-04-08T14:21:55.002Z</time></trkpt><trkpt lat="36.8407504" lon="15.1078557"><ele>8.714285714285715</ele><time>2026-04-08T14:22:01.003Z</time></trkpt><trkpt lat="36.8406871" lon="15.1078323"><ele>8.571428571428571</ele><time>2026-04-08T14:22:07.003Z</time></trkpt><trkpt lat="36.8406237" lon="15.1078553"><ele>8.428571428571429</ele><time>2026-04-08T14:22:14.003Z</time></trkpt><trkpt lat="36.8406041" lon="15.1079362"><ele>8.285714285714285</ele><time>2026-04-08T14:22:33.003Z</time></trkpt><trkpt lat="36.8406035" lon="15.1078492"><ele>8.142857142857142</ele><time>2026-04-08T14:23:04.003Z</time></trkpt><trkpt lat="36.8406422" lon="15.1077829"><ele>8.0</ele><time>2026-04-08T14:23:22.002Z</time></trkpt><trkpt lat="36.8406731" lon="15.1077075"><ele>7.999999999999999</ele><time>2026-04-08T14:23:40.131Z</time></trkpt><trkpt lat="36.8406511" lon="15.1076222"><ele>8.0</ele><time>2026-04-08T14:23:44.002Z</time></trkpt><trkpt lat="36.8406016" lon="15.107713"><ele>8.0</ele><time>2026-04-08T14:25:04.002Z</time></trkpt><trkpt lat="36.8405738" lon="15.1078057"><ele>8.0</ele><time>2026-04-08T14:25:53.001Z</time></trkpt><trkpt lat="36.8405148" lon="15.1077717"><ele>7.999999999999999</ele><time>2026-04-08T14:26:07.003Z</time></trkpt><trkpt lat="36.8404959" lon="15.1076751"><ele>8.0</ele><time>2026-04-08T14:26:19.002Z</time></trkpt><trkpt lat="36.8405754" lon="15.10767"><ele>8.0</ele><time>2026-04-08T14:26:33.001Z</time></trkpt><trkpt lat="36.8405456" lon="15.1075895"><ele>7.999999999999999</ele><time>2026-04-08T14:26:39.003Z</time></trkpt><trkpt lat="36.8404954" lon="15.1075382"><ele>8.0</ele><time>2026-04-08T14:27:01.002Z</time></trkpt><trkpt lat="36.840453" lon="15.107601"><ele>8.0</ele><time>2026-04-08T14:27:14.001Z</time></trkpt><trkpt lat="36.8404439" lon="15.107515"><ele>7.999999999999999</ele><time>2026-04-08T14:27:28.002Z</time></trkpt><trkpt lat="36.8405035" lon="15.1074627"><ele>8.0</ele><time>2026-04-08T14:27:34.001Z</time></trkpt><trkpt lat="36.8405266" lon="15.1073859"><ele>8.0</ele><time>2026-04-08T14:27:41.001Z</time></trkpt><trkpt lat="36.8405366" lon="15.1073027"><ele>7.857142857142857</ele><time>2026-04-08T14:27:50.165Z</time></trkpt><trkpt lat="36.8405562" lon="15.1072246"><ele>7.7142857142857135</ele><time>2026-04-08T14:27:57.002Z</time></trkpt><trkpt lat="36.8405092" lon="15.1071706"><ele>7.571428571428571</ele><time>2026-04-08T14:28:04.002Z</time></trkpt><trkpt lat="36.8404638" lon="15.1071134"><ele>7.428571428571429</ele><time>2026-04-08T14:28:11.431Z</time></trkpt><trkpt lat="36.840402" lon="15.1070823"><ele>7.285714285714286</ele><time>2026-04-08T14:28:18.01Z</time></trkpt><trkpt lat="36.840333" lon="15.1070644"><ele>7.142857142857142</ele><time>2026-04-08T14:28:26.001Z</time></trkpt><trkpt lat="36.8402816" lon="15.107004"><ele>7.0</ele><time>2026-04-08T14:28:32.002Z</time></trkpt><trkpt lat="36.8402257" lon="15.1069526"><ele>7.0</ele><time>2026-04-08T14:28:40.002Z</time></trkpt><trkpt lat="36.8401602" lon="15.1069427"><ele>7.0</ele><time>2026-04-08T14:28:47.001Z</time></trkpt><trkpt lat="36.8401041" lon="15.1069037"><ele>7.0</ele><time>2026-04-08T14:28:52.994Z</time></trkpt><trkpt lat="36.8400477" lon="15.1068637"><ele>7.0</ele><time>2026-04-08T14:29:00.002Z</time></trkpt><trkpt lat="36.8400003" lon="15.1068019"><ele>7.0</ele><time>2026-04-08T14:29:07.674Z</time></trkpt><trkpt lat="36.8399449" lon="15.1067454"><ele>7.0</ele><time>2026-04-08T14:29:14.932Z</time></trkpt><trkpt lat="36.8398769" lon="15.1067328"><ele>7.0</ele><time>2026-04-08T14:29:21.493Z</time></trkpt><trkpt lat="36.8398129" lon="15.1067095"><ele>6.857142857142857</ele><time>2026-04-08T14:29:30.001Z</time></trkpt><trkpt lat="36.8397653" lon="15.1066403"><ele>6.714285714285714</ele><time>2026-04-08T14:29:37.002Z</time></trkpt><trkpt lat="36.839756" lon="15.1065496"><ele>6.571428571428571</ele><time>2026-04-08T14:29:43.001Z</time></trkpt><trkpt lat="36.8397219" lon="15.1064797"><ele>6.428571428571429</ele><time>2026-04-08T14:29:50.002Z</time></trkpt><trkpt lat="36.8396546" lon="15.1064643"><ele>6.285714285714286</ele><time>2026-04-08T14:30:09.002Z</time></trkpt><trkpt lat="36.8396049" lon="15.1063943"><ele>6.142857142857142</ele><time>2026-04-08T14:30:13.96Z</time></trkpt><trkpt lat="36.8395485" lon="15.1063341"><ele>6.0</ele><time>2026-04-08T14:30:20.001Z</time></trkpt><trkpt lat="36.8394947" lon="15.1062817"><ele>5.999999999999999</ele><time>2026-04-08T14:30:43.002Z</time></trkpt><trkpt lat="36.8394243" lon="15.1062688"><ele>6.0</ele><time>2026-04-08T14:30:52Z</time></trkpt><trkpt lat="36.8393591" lon="15.1062392"><ele>6.0</ele><time>2026-04-08T14:31:03.001Z</time></trkpt><trkpt lat="36.8392976" lon="15.1062804"><ele>6.0</ele><time>2026-04-08T14:31:09.002Z</time></trkpt><trkpt lat="36.8392337" lon="15.1062769"><ele>6.0</ele><time>2026-04-08T14:31:15Z</time></trkpt><trkpt lat="36.8391687" lon="15.106257"><ele>5.999999999999999</ele><time>2026-04-08T14:31:21.001Z</time></trkpt><trkpt lat="36.8390967" lon="15.1062452"><ele>6.0</ele><time>2026-04-08T14:31:29.238Z</time></trkpt><trkpt lat="36.8390307" lon="15.1062061"><ele>5.571428571428571</ele><time>2026-04-08T14:31:35.406Z</time></trkpt><trkpt lat="36.8389674" lon="15.1061993"><ele>5.142857142857142</ele><time>2026-04-08T14:31:41.002Z</time></trkpt><trkpt lat="36.8389027" lon="15.1062214"><ele>4.7142857142857135</ele><time>2026-04-08T14:31:46Z</time></trkpt><trkpt lat="36.8388364" lon="15.106225"><ele>4.285714285714286</ele><time>2026-04-08T14:31:52.001Z</time></trkpt><trkpt lat="36.8387712" lon="15.1061957"><ele>3.8571428571428568</ele><time>2026-04-08T14:31:58.369Z</time></trkpt><trkpt lat="36.8387085" lon="15.1062099"><ele>3.4285714285714284</ele><time>2026-04-08T14:32:05.001Z</time></trkpt><trkpt lat="36.8386496" lon="15.1062471"><ele>3.0</ele><time>2026-04-08T14:32:12.147Z</time></trkpt><trkpt lat="36.8385831" lon="15.1062439"><ele>2.9999999999999996</ele><time>2026-04-08T14:32:18.139Z</time></trkpt><trkpt lat="36.8385198" lon="15.1062619"><ele>3.0</ele><time>2026-04-08T14:32:29.002Z</time></trkpt><trkpt lat="36.838448" lon="15.1062722"><ele>3.0</ele><time>2026-04-08T14:32:34.96Z</time></trkpt><trkpt lat="36.8383892" lon="15.1061993"><ele>3.0</ele><time>2026-04-08T14:32:39.002Z</time></trkpt><trkpt lat="36.8383728" lon="15.1061218"><ele>3.0</ele><time>2026-04-08T14:32:43.008Z</time></trkpt><trkpt lat="36.8383254" lon="15.1060684"><ele>2.9999999999999996</ele><time>2026-04-08T14:32:48.001Z</time></trkpt><trkpt lat="36.838256" lon="15.1060732"><ele>3.0</ele><time>2026-04-08T14:32:54.027Z</time></trkpt><trkpt lat="36.838185" lon="15.1060851"><ele>2.8571428571428568</ele><time>2026-04-08T14:33:00.001Z</time></trkpt><trkpt lat="36.8381135" lon="15.1060891"><ele>2.7142857142857144</ele><time>2026-04-08T14:33:07.002Z</time></trkpt><trkpt lat="36.8380472" lon="15.1060946"><ele>2.571428571428571</ele><time>2026-04-08T14:33:14.001Z</time></trkpt><trkpt lat="36.8380261" lon="15.1061696"><ele>2.4285714285714284</ele><time>2026-04-08T14:33:22.001Z</time></trkpt><trkpt lat="36.8379697" lon="15.1061131"><ele>2.2857142857142856</ele><time>2026-04-08T14:33:29.001Z</time></trkpt><trkpt lat="36.8379442" lon="15.1060221"><ele>2.142857142857143</ele><time>2026-04-08T14:33:37.002Z</time></trkpt><trkpt lat="36.8378767" lon="15.1060055"><ele>2.0</ele><time>2026-04-08T14:33:41.002Z</time></trkpt><trkpt lat="36.8378502" lon="15.1059302"><ele>2.0</ele><time>2026-04-08T14:33:55.001Z</time></trkpt><trkpt lat="36.8378719" lon="15.1058427"><ele>1.9999999999999998</ele><time>2026-04-08T14:34:00.002Z</time></trkpt><trkpt lat="36.8378672" lon="15.105757"><ele>2.0</ele><time>2026-04-08T14:34:05.98Z</time></trkpt><trkpt lat="36.8378084" lon="15.1057086"><ele>2.0</ele><time>2026-04-08T14:34:13.063Z</time></trkpt><trkpt lat="36.8378138" lon="15.1056247"><ele>1.9999999999999998</ele><time>2026-04-08T14:34:19.001Z</time></trkpt><trkpt lat="36.837811" lon="15.1055458"><ele>2.0</ele><time>2026-04-08T14:34:24.96Z</time></trkpt><trkpt lat="36.8378731" lon="15.1055133"><ele>2.0</ele><time>2026-04-08T14:34:52.989Z</time></trkpt><trkpt lat="36.8379257" lon="15.1054591"><ele>2.142857142857143</ele><time>2026-04-08T14:34:59.001Z</time></trkpt><trkpt lat="36.837988" lon="15.1054878"><ele>2.2857142857142856</ele><time>2026-04-08T14:35:05.947Z</time></trkpt><trkpt lat="36.838049" lon="15.105528"><ele>2.4285714285714284</ele><time>2026-04-08T14:35:13.002Z</time></trkpt><trkpt lat="36.8381022" lon="15.1055843"><ele>2.571428571428571</ele><time>2026-04-08T14:35:19.002Z</time></trkpt><trkpt lat="36.8381415" lon="15.1056531"><ele>2.7142857142857144</ele><time>2026-04-08T14:35:25.003Z</time></trkpt><trkpt lat="36.8381652" lon="15.1055796"><ele>2.8571428571428568</ele><time>2026-04-08T14:35:35.002Z</time></trkpt><trkpt lat="36.8381681" lon="15.1056651"><ele>3.0</ele><time>2026-04-08T14:36:06.002Z</time></trkpt><trkpt lat="36.838232" lon="15.1057045"><ele>2.9999999999999996</ele><time>2026-04-08T14:36:11Z</time></trkpt><trkpt lat="36.8383042" lon="15.1057244"><ele>3.0</ele><time>2026-04-08T14:36:18.001Z</time></trkpt><trkpt lat="36.8383582" lon="15.1057672"><ele>3.0</ele><time>2026-04-08T14:36:23.018Z</time></trkpt><trkpt lat="36.8384245" lon="15.1058116"><ele>3.0</ele><time>2026-04-08T14:36:35Z</time></trkpt><trkpt lat="36.8384885" lon="15.1058239"><ele>3.0</ele><time>2026-04-08T14:36:42.01Z</time></trkpt><trkpt lat="36.838557" lon="15.1058636"><ele>2.9999999999999996</ele><time>2026-04-08T14:36:55.848Z</time></trkpt><trkpt lat="36.8386255" lon="15.1058736"><ele>3.0</ele><time>2026-04-08T14:37:03Z</time></trkpt><trkpt lat="36.8386846" lon="15.1059033"><ele>2.9999999999999996</ele><time>2026-04-08T14:37:12Z</time></trkpt><trkpt lat="36.8387416" lon="15.1059376"><ele>3.0</ele><time>2026-04-08T14:37:20.999Z</time></trkpt><trkpt lat="36.8388042" lon="15.1059731"><ele>3.0</ele><time>2026-04-08T14:37:27.931Z</time></trkpt><trkpt lat="36.8388578" lon="15.1060281"><ele>3.0</ele><time>2026-04-08T14:37:38.009Z</time></trkpt><trkpt lat="36.8389282" lon="15.1060121"><ele>3.0</ele><time>2026-04-08T14:37:47.001Z</time></trkpt><trkpt lat="36.8389909" lon="15.1060238"><ele>2.9999999999999996</ele><time>2026-04-08T14:37:52.999Z</time></trkpt><trkpt lat="36.8390599" lon="15.1060387"><ele>3.0</ele><time>2026-04-08T14:37:59.999Z</time></trkpt><trkpt lat="36.8391274" lon="15.1060546"><ele>2.9999999999999996</ele><time>2026-04-08T14:38:07.008Z</time></trkpt><trkpt lat="36.8391855" lon="15.1060897"><ele>3.0</ele><time>2026-04-08T14:38:13Z</time></trkpt><trkpt lat="36.8392514" lon="15.1060956"><ele>3.0</ele><time>2026-04-08T14:38:19Z</time></trkpt><trkpt lat="36.8393148" lon="15.1060911"><ele>3.0</ele><time>2026-04-08T14:38:23.999Z</time></trkpt><trkpt lat="36.8393743" lon="15.1060317"><ele>3.0</ele><time>2026-04-08T14:38:31.001Z</time></trkpt><trkpt lat="36.8394136" lon="15.1059584"><ele>2.9999999999999996</ele><time>2026-04-08T14:38:40.003Z</time></trkpt><trkpt lat="36.8394533" lon="15.1058911"><ele>3.0</ele><time>2026-04-08T14:38:48.001Z</time></trkpt><trkpt lat="36.8394921" lon="15.1058172"><ele>3.4285714285714284</ele><time>2026-04-08T14:38:55.012Z</time></trkpt><trkpt lat="36.8395481" lon="15.1057784"><ele>3.8571428571428568</ele><time>2026-04-08T14:39:04.001Z</time></trkpt><trkpt lat="36.8395723" lon="15.1058719"><ele>4.285714285714286</ele><time>2026-04-08T14:39:20.001Z</time></trkpt><trkpt lat="36.8396268" lon="15.1059181"><ele>4.7142857142857135</ele><time>2026-04-08T14:39:24.912Z</time></trkpt><trkpt lat="36.8396883" lon="15.1059627"><ele>5.142857142857142</ele><time>2026-04-08T14:39:32Z</time></trkpt><trkpt lat="36.8397272" lon="15.1060283"><ele>5.571428571428571</ele><time>2026-04-08T14:39:39Z</time></trkpt><trkpt lat="36.839769" lon="15.106095"><ele>6.0</ele><time>2026-04-08T14:39:45.999Z</time></trkpt><trkpt lat="36.8398299" lon="15.1061229"><ele>5.999999999999999</ele><time>2026-04-08T14:39:54Z</time></trkpt><trkpt lat="36.8398862" lon="15.1061648"><ele>6.0</ele><time>2026-04-08T14:40:09.949Z</time></trkpt><trkpt lat="36.8398838" lon="15.1062511"><ele>6.0</ele><time>2026-04-08T14:40:17Z</time></trkpt><trkpt lat="36.8399095" lon="15.1063324"><ele>6.0</ele><time>2026-04-08T14:40:25Z</time></trkpt><trkpt lat="36.8399652" lon="15.1063765"><ele>6.0</ele><time>2026-04-08T14:40:33Z</time></trkpt><trkpt lat="36.8400281" lon="15.106392"><ele>5.999999999999999</ele><time>2026-04-08T14:40:41Z</time></trkpt><trkpt lat="36.8400889" lon="15.1064137"><ele>6.0</ele><time>2026-04-08T14:40:48Z</time></trkpt><trkpt lat="36.8401531" lon="15.1064404"><ele>6.142857142857142</ele><time>2026-04-08T14:40:56.001Z</time></trkpt><trkpt lat="36.8402101" lon="15.1064942"><ele>6.285714285714286</ele><time>2026-04-08T14:41:03.948Z</time></trkpt><trkpt lat="36.840268" lon="15.1065461"><ele>6.428571428571429</ele><time>2026-04-08T14:41:12.953Z</time></trkpt><trkpt lat="36.8403273" lon="15.1065942"><ele>6.571428571428571</ele><time>2026-04-08T14:41:20Z</time></trkpt><trkpt lat="36.8403946" lon="15.1066211"><ele>6.714285714285714</ele><time>2026-04-08T14:41:27.005Z</time></trkpt><trkpt lat="36.8404664" lon="15.1066568"><ele>6.857142857142857</ele><time>2026-04-08T14:41:32.008Z</time></trkpt><trkpt lat="36.8405107" lon="15.1067164"><ele>7.0</ele><time>2026-04-08T14:41:38Z</time></trkpt><trkpt lat="36.8405396" lon="15.106789"><ele>7.0</ele><time>2026-04-08T14:41:46Z</time></trkpt><trkpt lat="36.8405553" lon="15.1068665"><ele>7.0</ele><time>2026-04-08T14:41:55Z</time></trkpt><trkpt lat="36.8406041" lon="15.1069227"><ele>7.0</ele><time>2026-04-08T14:42:01.999Z</time></trkpt><trkpt lat="36.8406761" lon="15.1069372"><ele>7.0</ele><time>2026-04-08T14:42:08.926Z</time></trkpt><trkpt lat="36.8407124" lon="15.1068679"><ele>7.0</ele><time>2026-04-08T14:42:17.91Z</time></trkpt><trkpt lat="36.840712" lon="15.1067824"><ele>7.0</ele><time>2026-04-08T14:42:25.012Z</time></trkpt><trkpt lat="36.8407123" lon="15.1067006"><ele>7.0</ele><time>2026-04-08T14:42:33Z</time></trkpt><trkpt lat="36.8406935" lon="15.1066252"><ele>7.142857142857142</ele><time>2026-04-08T14:42:38.999Z</time></trkpt><trkpt lat="36.8407263" lon="15.1065485"><ele>7.285714285714286</ele><time>2026-04-08T14:42:45Z</time></trkpt><trkpt lat="36.8407343" lon="15.1064601"><ele>7.428571428571429</ele><time>2026-04-08T14:42:51.999Z</time></trkpt><trkpt lat="36.8407455" lon="15.1063644"><ele>7.571428571428571</ele><time>2026-04-08T14:42:58.008Z</time></trkpt><trkpt lat="36.8407443" lon="15.1062744"><ele>7.7142857142857135</ele><time>2026-04-08T14:43:04.999Z</time></trkpt><trkpt lat="36.840755" lon="15.1061889"><ele>7.857142857142857</ele><time>2026-04-08T14:43:11Z</time></trkpt><trkpt lat="36.8407837" lon="15.1061116"><ele>8.0</ele><time>2026-04-08T14:43:16Z</time></trkpt><trkpt lat="36.8408193" lon="15.1060464"><ele>8.0</ele><time>2026-04-08T14:43:20.988Z</time></trkpt><trkpt lat="36.8408622" lon="15.1059881"><ele>7.999999999999999</ele><time>2026-04-08T14:43:23.999Z</time></trkpt><trkpt lat="36.8408965" lon="15.1059001"><ele>8.0</ele><time>2026-04-08T14:43:27.998Z</time></trkpt><trkpt lat="36.840922" lon="15.1058188"><ele>8.0</ele><time>2026-04-08T14:43:31.998Z</time></trkpt><trkpt lat="36.8409375" lon="15.1057265"><ele>7.999999999999999</ele><time>2026-04-08T14:43:37Z</time></trkpt><trkpt lat="36.8409555" lon="15.1056459"><ele>8.0</ele><time>2026-04-08T14:43:41.999Z</time></trkpt><trkpt lat="36.8409848" lon="15.1055705"><ele>8.0</ele><time>2026-04-08T14:43:47Z</time></trkpt><trkpt lat="36.8410021" lon="15.105493"><ele>8.285714285714285</ele><time>2026-04-08T14:43:51.999Z</time></trkpt><trkpt lat="36.8410108" lon="15.1054135"><ele>8.571428571428571</ele><time>2026-04-08T14:43:56.998Z</time></trkpt><trkpt lat="36.8410221" lon="15.1053356"><ele>8.857142857142858</ele><time>2026-04-08T14:44:01.999Z</time></trkpt><trkpt lat="36.8410299" lon="15.105253"><ele>9.142857142857142</ele><time>2026-04-08T14:44:06.998Z</time></trkpt><trkpt lat="36.8410341" lon="15.1051709"><ele>9.428571428571429</ele><time>2026-04-08T14:44:11.951Z</time></trkpt><trkpt lat="36.8410444" lon="15.105078"><ele>9.714285714285714</ele><time>2026-04-08T14:44:17.998Z</time></trkpt><trkpt lat="36.8410491" lon="15.1049985"><ele>10.0</ele><time>2026-04-08T14:44:22.999Z</time></trkpt><trkpt lat="36.8410489" lon="15.1049188"><ele>9.142857142857142</ele><time>2026-04-08T14:44:28.061Z</time></trkpt><trkpt lat="36.8410565" lon="15.104838"><ele>8.285714285714286</ele><time>2026-04-08T14:44:33Z</time></trkpt><trkpt lat="36.8410584" lon="15.1047544"><ele>7.428571428571429</ele><time>2026-04-08T14:44:37.999Z</time></trkpt><trkpt lat="36.8410649" lon="15.1046735"><ele>6.571428571428571</ele><time>2026-04-08T14:44:43.014Z</time></trkpt><trkpt lat="36.8410745" lon="15.1045824"><ele>5.7142857142857135</ele><time>2026-04-08T14:44:49.011Z</time></trkpt><trkpt lat="36.8410759" lon="15.10449"><ele>4.857142857142857</ele><time>2026-04-08T14:44:54.968Z</time></trkpt><trkpt lat="36.8410881" lon="15.104409"><ele>4.0</ele><time>2026-04-08T14:44:59.952Z</time></trkpt><trkpt lat="36.8410861" lon="15.1043262"><ele>4.0</ele><time>2026-04-08T14:45:04.872Z</time></trkpt><trkpt lat="36.8411104" lon="15.1042506"><ele>3.9999999999999996</ele><time>2026-04-08T14:45:10Z</time></trkpt><trkpt lat="36.8410942" lon="15.1041599"><ele>4.0</ele><time>2026-04-08T14:45:15.028Z</time></trkpt><trkpt lat="36.8410553" lon="15.1040863"><ele>4.0</ele><time>2026-04-08T14:45:19.999Z</time></trkpt><trkpt lat="36.8410631" lon="15.1039874"><ele>3.9999999999999996</ele><time>2026-04-08T14:45:25.001Z</time></trkpt><trkpt lat="36.8410866" lon="15.1039138"><ele>4.0</ele><time>2026-04-08T14:45:28.966Z</time></trkpt><trkpt lat="36.8410856" lon="15.1038253"><ele>4.0</ele><time>2026-04-08T14:45:35.956Z</time></trkpt><trkpt lat="36.8411095" lon="15.1037283"><ele>3.8571428571428568</ele><time>2026-04-08T14:45:52.59Z</time></trkpt><trkpt lat="36.8411087" lon="15.1036365"><ele>3.714285714285714</ele><time>2026-04-08T14:46:02.263Z</time></trkpt><trkpt lat="36.8410801" lon="15.1035654"><ele>3.571428571428571</ele><time>2026-04-08T14:46:06.776Z</time></trkpt><trkpt lat="36.8410509" lon="15.1034927"><ele>3.4285714285714284</ele><time>2026-04-08T14:46:12.194Z</time></trkpt><trkpt lat="36.8410421" lon="15.1034078"><ele>3.2857142857142856</ele><time>2026-04-08T14:46:17.999Z</time></trkpt><trkpt lat="36.8410489" lon="15.1033201"><ele>3.1428571428571423</ele><time>2026-04-08T14:46:23.853Z</time></trkpt><trkpt lat="36.8410653" lon="15.1032388"><ele>3.0</ele><time>2026-04-08T14:46:28.999Z</time></trkpt><trkpt lat="36.8410779" lon="15.1031545"><ele>3.2857142857142856</ele><time>2026-04-08T14:46:34.911Z</time></trkpt><trkpt lat="36.8410796" lon="15.103059"><ele>3.571428571428571</ele><time>2026-04-08T14:46:41.095Z</time></trkpt><trkpt lat="36.8410843" lon="15.1029764"><ele>3.8571428571428568</ele><time>2026-04-08T14:46:46.999Z</time></trkpt><trkpt lat="36.8410819" lon="15.1028958"><ele>4.142857142857142</ele><time>2026-04-08T14:46:52Z</time></trkpt><trkpt lat="36.8410879" lon="15.1028113"><ele>4.428571428571429</ele><time>2026-04-08T14:46:56.976Z</time></trkpt><trkpt lat="36.8410877" lon="15.1027302"><ele>4.714285714285714</ele><time>2026-04-08T14:47:01.999Z</time></trkpt><trkpt lat="36.8410937" lon="15.1026473"><ele>5.0</ele><time>2026-04-08T14:47:06.999Z</time></trkpt><trkpt lat="36.8410917" lon="15.1025663"><ele>5.0</ele><time>2026-04-08T14:47:11.998Z</time></trkpt><trkpt lat="36.8410953" lon="15.1024873"><ele>5.0</ele><time>2026-04-08T14:47:16.999Z</time></trkpt><trkpt lat="36.8411017" lon="15.1024047"><ele>5.0</ele><time>2026-04-08T14:47:22Z</time></trkpt><trkpt lat="36.8411028" lon="15.102326"><ele>5.0</ele><time>2026-04-08T14:47:26.999Z</time></trkpt><trkpt lat="36.8411108" lon="15.1022461"><ele>5.0</ele><time>2026-04-08T14:47:31.967Z</time></trkpt><trkpt lat="36.8411159" lon="15.102164"><ele>5.0</ele><time>2026-04-08T14:47:37Z</time></trkpt><trkpt lat="36.8411159" lon="15.1020709"><ele>5.0</ele><time>2026-04-08T14:47:42.999Z</time></trkpt><trkpt lat="36.8411246" lon="15.1019808"><ele>5.0</ele><time>2026-04-08T14:47:48.998Z</time></trkpt><trkpt lat="36.8411224" lon="15.1019012"><ele>5.0</ele><time>2026-04-08T14:47:54.005Z</time></trkpt><trkpt lat="36.8411389" lon="15.1018127"><ele>5.0</ele><time>2026-04-08T14:47:59.999Z</time></trkpt><trkpt lat="36.8411447" lon="15.1017216"><ele>5.0</ele><time>2026-04-08T14:48:05.999Z</time></trkpt><trkpt lat="36.8411516" lon="15.1016413"><ele>5.0</ele><time>2026-04-08T14:48:10.999Z</time></trkpt><trkpt lat="36.8411597" lon="15.1015627"><ele>5.0</ele><time>2026-04-08T14:48:16.007Z</time></trkpt><trkpt lat="36.8411542" lon="15.1014817"><ele>5.0</ele><time>2026-04-08T14:48:20.99Z</time></trkpt><trkpt lat="36.841162" lon="15.1013963"><ele>5.0</ele><time>2026-04-08T14:48:27Z</time></trkpt><trkpt lat="36.8411662" lon="15.1013153"><ele>5.0</ele><time>2026-04-08T14:48:31.999Z</time></trkpt><trkpt lat="36.8411681" lon="15.1012255"><ele>5.0</ele><time>2026-04-08T14:48:37.998Z</time></trkpt><trkpt lat="36.8411655" lon="15.1011462"><ele>5.0</ele><time>2026-04-08T14:48:42.912Z</time></trkpt><trkpt lat="36.8411731" lon="15.1010599"><ele>5.0</ele><time>2026-04-08T14:48:48.998Z</time></trkpt><trkpt lat="36.8411679" lon="15.100969"><ele>5.0</ele><time>2026-04-08T14:48:54.999Z</time></trkpt><trkpt lat="36.8411669" lon="15.1008896"><ele>5.0</ele><time>2026-04-08T14:49:00.001Z</time></trkpt><trkpt lat="36.8411736" lon="15.1008042"><ele>5.0</ele><time>2026-04-08T14:49:05.998Z</time></trkpt><trkpt lat="36.8411927" lon="15.1007292"><ele>5.0</ele><time>2026-04-08T14:49:10.999Z</time></trkpt><trkpt lat="36.8412039" lon="15.1006359"><ele>5.0</ele><time>2026-04-08T14:49:16.998Z</time></trkpt><trkpt lat="36.8412196" lon="15.1005583"><ele>5.0</ele><time>2026-04-08T14:49:21.998Z</time></trkpt><trkpt lat="36.8412334" lon="15.1004783"><ele>5.0</ele><time>2026-04-08T14:49:27.998Z</time></trkpt><trkpt lat="36.8412331" lon="15.1003827"><ele>5.0</ele><time>2026-04-08T14:49:34.206Z</time></trkpt><trkpt lat="36.8412215" lon="15.1003017"><ele>5.0</ele><time>2026-04-08T14:49:38.788Z</time></trkpt><trkpt lat="36.841232" lon="15.1002197"><ele>5.0</ele><time>2026-04-08T14:49:44.154Z</time></trkpt><trkpt lat="36.8412195" lon="15.1001297"><ele>5.0</ele><time>2026-04-08T14:49:49.998Z</time></trkpt><trkpt lat="36.841228" lon="15.1000418"><ele>5.0</ele><time>2026-04-08T14:49:55.998Z</time></trkpt><trkpt lat="36.8412337" lon="15.0999571"><ele>5.0</ele><time>2026-04-08T14:50:02.385Z</time></trkpt><trkpt lat="36.8412361" lon="15.0998613"><ele>5.0</ele><time>2026-04-08T14:50:08.155Z</time></trkpt><trkpt lat="36.8412493" lon="15.0997754"><ele>5.0</ele><time>2026-04-08T14:50:14.168Z</time></trkpt><trkpt lat="36.8412574" lon="15.0996947"><ele>5.0</ele><time>2026-04-08T14:50:19.985Z</time></trkpt><trkpt lat="36.8412666" lon="15.0995976"><ele>5.0</ele><time>2026-04-08T14:50:25.998Z</time></trkpt><trkpt lat="36.8412727" lon="15.0995066"><ele>5.0</ele><time>2026-04-08T14:50:31.789Z</time></trkpt><trkpt lat="36.8412525" lon="15.0994288"><ele>5.0</ele><time>2026-04-08T14:50:37.387Z</time></trkpt><trkpt lat="36.8412583" lon="15.0993409"><ele>5.0</ele><time>2026-04-08T14:50:43.552Z</time></trkpt><trkpt lat="36.841239" lon="15.0992612"><ele>5.0</ele><time>2026-04-08T14:50:49.447Z</time></trkpt><trkpt lat="36.8412335" lon="15.0991655"><ele>5.0</ele><time>2026-04-08T14:50:55.574Z</time></trkpt><trkpt lat="36.8412471" lon="15.0990874"><ele>5.0</ele><time>2026-04-08T14:51:00.179Z</time></trkpt><trkpt lat="36.8412691" lon="15.0990132"><ele>4.571428571428571</ele><time>2026-04-08T14:51:04.716Z</time></trkpt><trkpt lat="36.8413054" lon="15.0989451"><ele>4.142857142857143</ele><time>2026-04-08T14:51:12.046Z</time></trkpt><trkpt lat="36.8413799" lon="15.0989262"><ele>3.7142857142857144</ele><time>2026-04-08T14:51:41.998Z</time></trkpt><trkpt lat="36.8414438" lon="15.0989596"><ele>3.2857142857142856</ele><time>2026-04-08T14:51:46.992Z</time></trkpt><trkpt lat="36.84151" lon="15.0989872"><ele>2.8571428571428568</ele><time>2026-04-08T14:51:51.948Z</time></trkpt><trkpt lat="36.8415812" lon="15.0989815"><ele>2.4285714285714284</ele><time>2026-04-08T14:51:56.871Z</time></trkpt><trkpt lat="36.8416356" lon="15.0989314"><ele>2.0</ele><time>2026-04-08T14:52:19.025Z</time></trkpt><trkpt lat="36.8417093" lon="15.098947"><ele>2.0</ele><time>2026-04-08T14:52:24.998Z</time></trkpt><trkpt lat="36.8417831" lon="15.0989502"><ele>1.9999999999999998</ele><time>2026-04-08T14:52:29.181Z</time></trkpt><trkpt lat="36.8418526" lon="15.0989915"><ele>2.0</ele><time>2026-04-08T14:52:33.153Z</time></trkpt><trkpt lat="36.8419169" lon="15.0989985"><ele>2.0</ele><time>2026-04-08T14:52:38.009Z</time></trkpt><trkpt lat="36.8419947" lon="15.0990216"><ele>1.9999999999999998</ele><time>2026-04-08T14:52:42.873Z</time></trkpt><trkpt lat="36.8420622" lon="15.0990331"><ele>2.0</ele><time>2026-04-08T14:52:47.998Z</time></trkpt><trkpt lat="36.8421292" lon="15.0990375"><ele>2.0</ele><time>2026-04-08T14:52:54.997Z</time></trkpt><trkpt lat="36.8421945" lon="15.0990417"><ele>2.4285714285714284</ele><time>2026-04-08T14:52:59.788Z</time></trkpt><trkpt lat="36.8422583" lon="15.0990383"><ele>2.8571428571428568</ele><time>2026-04-08T14:53:04.998Z</time></trkpt><trkpt lat="36.842315" lon="15.0990966"><ele>3.2857142857142856</ele><time>2026-04-08T14:53:12.152Z</time></trkpt><trkpt lat="36.8423729" lon="15.0991303"><ele>3.7142857142857144</ele><time>2026-04-08T14:53:17.551Z</time></trkpt><trkpt lat="36.8424416" lon="15.0991143"><ele>4.142857142857143</ele><time>2026-04-08T14:53:22.57Z</time></trkpt><trkpt lat="36.8425131" lon="15.0991259"><ele>4.571428571428571</ele><time>2026-04-08T14:53:28.117Z</time></trkpt><trkpt lat="36.8425803" lon="15.0991458"><ele>5.0</ele><time>2026-04-08T14:53:33.152Z</time></trkpt><trkpt lat="36.8426519" lon="15.0991852"><ele>5.142857142857142</ele><time>2026-04-08T14:53:39.832Z</time></trkpt><trkpt lat="36.8427135" lon="15.099209"><ele>5.285714285714286</ele><time>2026-04-08T14:53:45.946Z</time></trkpt><trkpt lat="36.8427441" lon="15.0991298"><ele>5.428571428571429</ele><time>2026-04-08T14:54:02.207Z</time></trkpt><trkpt lat="36.8427847" lon="15.0990519"><ele>5.571428571428571</ele><time>2026-04-08T14:54:09.072Z</time></trkpt><trkpt lat="36.8428081" lon="15.0989751"><ele>5.714285714285714</ele><time>2026-04-08T14:54:15.153Z</time></trkpt><trkpt lat="36.8428573" lon="15.0989137"><ele>5.857142857142857</ele><time>2026-04-08T14:54:21.161Z</time></trkpt><trkpt lat="36.8428906" lon="15.0988465"><ele>6.0</ele><time>2026-04-08T14:54:25.414Z</time></trkpt><trkpt lat="36.8429496" lon="15.0987764"><ele>5.999999999999999</ele><time>2026-04-08T14:54:30.953Z</time></trkpt><trkpt lat="36.8429982" lon="15.0987232"><ele>6.0</ele><time>2026-04-08T14:54:36.997Z</time></trkpt><trkpt lat="36.8430597" lon="15.0986844"><ele>6.0</ele><time>2026-04-08T14:54:43.114Z</time></trkpt><trkpt lat="36.8431246" lon="15.098685"><ele>6.0</ele><time>2026-04-08T14:54:49.997Z</time></trkpt><trkpt lat="36.8431968" lon="15.0986946"><ele>6.0</ele><time>2026-04-08T14:54:56.832Z</time></trkpt><trkpt lat="36.843264" lon="15.0987319"><ele>5.999999999999999</ele><time>2026-04-08T14:55:02.997Z</time></trkpt><trkpt lat="36.8433229" lon="15.0987635"><ele>6.0</ele><time>2026-04-08T14:55:06.887Z</time></trkpt><trkpt lat="36.8433821" lon="15.0987913"><ele>5.999999999999999</ele><time>2026-04-08T14:55:12.068Z</time></trkpt><trkpt lat="36.8434486" lon="15.0988156"><ele>6.0</ele><time>2026-04-08T14:55:18.075Z</time></trkpt><trkpt lat="36.8435228" lon="15.0988178"><ele>6.0</ele><time>2026-04-08T14:55:23.111Z</time></trkpt><trkpt lat="36.8435869" lon="15.098806"><ele>6.0</ele><time>2026-04-08T14:55:28.795Z</time></trkpt><trkpt lat="36.8436511" lon="15.0987838"><ele>6.0</ele><time>2026-04-08T14:55:34.077Z</time></trkpt><trkpt lat="36.8437192" lon="15.0987764"><ele>5.999999999999999</ele><time>2026-04-08T14:55:39.252Z</time></trkpt><trkpt lat="36.8437829" lon="15.0987581"><ele>6.0</ele><time>2026-04-08T14:55:44.449Z</time></trkpt><trkpt lat="36.8438582" lon="15.0987448"><ele>6.285714285714285</ele><time>2026-04-08T14:55:51.755Z</time></trkpt><trkpt lat="36.8439379" lon="15.0987508"><ele>6.571428571428571</ele><time>2026-04-08T14:55:57.106Z</time></trkpt><trkpt lat="36.8440076" lon="15.0987807"><ele>6.857142857142857</ele><time>2026-04-08T14:56:02.029Z</time></trkpt><trkpt lat="36.8440765" lon="15.0987778"><ele>7.142857142857142</ele><time>2026-04-08T14:56:07.49Z</time></trkpt><trkpt lat="36.8441443" lon="15.0988136"><ele>7.428571428571428</ele><time>2026-04-08T14:56:12.866Z</time></trkpt><trkpt lat="36.8442176" lon="15.0988468"><ele>7.7142857142857135</ele><time>2026-04-08T14:56:18.997Z</time></trkpt><trkpt lat="36.8442842" lon="15.0988907"><ele>8.0</ele><time>2026-04-08T14:56:24.997Z</time></trkpt><trkpt lat="36.8443475" lon="15.0989508"><ele>8.428571428571429</ele><time>2026-04-08T14:56:30.45Z</time></trkpt><trkpt lat="36.8444147" lon="15.0989934"><ele>8.857142857142856</ele><time>2026-04-08T14:56:34.934Z</time></trkpt><trkpt lat="36.8444876" lon="15.0990546"><ele>9.285714285714285</ele><time>2026-04-08T14:56:39.333Z</time></trkpt><trkpt lat="36.8445417" lon="15.0991024"><ele>9.714285714285714</ele><time>2026-04-08T14:56:42.628Z</time></trkpt><trkpt lat="36.8445879" lon="15.0991567"><ele>10.142857142857142</ele><time>2026-04-08T14:56:46.996Z</time></trkpt><trkpt lat="36.8446291" lon="15.0992179"><ele>10.571428571428571</ele><time>2026-04-08T14:56:52.028Z</time></trkpt><trkpt lat="36.8446832" lon="15.0992635"><ele>11.0</ele><time>2026-04-08T14:56:56.997Z</time></trkpt><trkpt lat="36.8447521" lon="15.0992683"><ele>11.0</ele><time>2026-04-08T14:57:02.139Z</time></trkpt><trkpt lat="36.8448107" lon="15.0993073"><ele>11.0</ele><time>2026-04-08T14:57:08.194Z</time></trkpt><trkpt lat="36.8448744" lon="15.0993332"><ele>11.0</ele><time>2026-04-08T14:57:14.132Z</time></trkpt><trkpt lat="36.8449409" lon="15.0993836"><ele>11.0</ele><time>2026-04-08T14:57:19.14Z</time></trkpt><trkpt lat="36.845023" lon="15.099427"><ele>11.0</ele><time>2026-04-08T14:57:25.154Z</time></trkpt><trkpt lat="36.8450887" lon="15.0994644"><ele>11.0</ele><time>2026-04-08T14:57:31.346Z</time></trkpt><trkpt lat="36.8451593" lon="15.0994816"><ele>11.0</ele><time>2026-04-08T14:57:36.448Z</time></trkpt><trkpt lat="36.8452267" lon="15.0994768"><ele>11.285714285714286</ele><time>2026-04-08T14:57:40.164Z</time></trkpt><trkpt lat="36.8453022" lon="15.0995093"><ele>11.571428571428571</ele><time>2026-04-08T14:57:45.57Z</time></trkpt><trkpt lat="36.8453593" lon="15.0995546"><ele>11.857142857142858</ele><time>2026-04-08T14:57:49.155Z</time></trkpt><trkpt lat="36.8454227" lon="15.0995665"><ele>12.142857142857142</ele><time>2026-04-08T14:57:53.212Z</time></trkpt><trkpt lat="36.8454887" lon="15.0995725"><ele>12.428571428571429</ele><time>2026-04-08T14:57:58.793Z</time></trkpt><trkpt lat="36.84554" lon="15.0996244"><ele>12.714285714285714</ele><time>2026-04-08T14:58:03.349Z</time></trkpt><trkpt lat="36.8455763" lon="15.0996993"><ele>13.0</ele><time>2026-04-08T14:58:08.996Z</time></trkpt><trkpt lat="36.845599" lon="15.099776"><ele>13.0</ele><time>2026-04-08T14:58:35.996Z</time></trkpt><trkpt lat="36.8456228" lon="15.0998525"><ele>13.0</ele><time>2026-04-08T14:58:42.155Z</time></trkpt><trkpt lat="36.8456568" lon="15.0999369"><ele>13.0</ele><time>2026-04-08T14:58:46.875Z</time></trkpt><trkpt lat="36.8456846" lon="15.1000156"><ele>13.0</ele><time>2026-04-08T14:58:52.003Z</time></trkpt><trkpt lat="36.8457086" lon="15.1000961"><ele>13.0</ele><time>2026-04-08T14:58:58.142Z</time></trkpt><trkpt lat="36.8457422" lon="15.1001801"><ele>13.0</ele><time>2026-04-08T14:59:04.141Z</time></trkpt><trkpt lat="36.8457806" lon="15.100252"><ele>13.0</ele><time>2026-04-08T14:59:10.152Z</time></trkpt><trkpt lat="36.8458006" lon="15.1003341"><ele>12.857142857142856</ele><time>2026-04-08T14:59:15.611Z</time></trkpt><trkpt lat="36.845813" lon="15.1004198"><ele>12.714285714285715</ele><time>2026-04-08T14:59:21.152Z</time></trkpt><trkpt lat="36.8458346" lon="15.1004988"><ele>12.571428571428571</ele><time>2026-04-08T14:59:27.352Z</time></trkpt><trkpt lat="36.8458562" lon="15.1005871"><ele>12.428571428571427</ele><time>2026-04-08T14:59:32.95Z</time></trkpt><trkpt lat="36.8458758" lon="15.1006716"><ele>12.285714285714285</ele><time>2026-04-08T14:59:38.995Z</time></trkpt><trkpt lat="36.8459105" lon="15.1007382"><ele>12.142857142857142</ele><time>2026-04-08T14:59:43.996Z</time></trkpt><trkpt lat="36.8459519" lon="15.1008113"><ele>12.0</ele><time>2026-04-08T14:59:49.996Z</time></trkpt><trkpt lat="36.8459619" lon="15.1008933"><ele>12.857142857142856</ele><time>2026-04-08T14:59:55.553Z</time></trkpt><trkpt lat="36.845987" lon="15.1009711"><ele>13.714285714285715</ele><time>2026-04-08T15:00:00.999Z</time></trkpt><trkpt lat="36.8460193" lon="15.1010511"><ele>14.571428571428573</ele><time>2026-04-08T15:00:06.927Z</time></trkpt><trkpt lat="36.8460475" lon="15.1011245"><ele>15.428571428571429</ele><time>2026-04-08T15:00:11.996Z</time></trkpt><trkpt lat="36.8460653" lon="15.1012069"><ele>16.285714285714285</ele><time>2026-04-08T15:00:17.936Z</time></trkpt><trkpt lat="36.8460908" lon="15.1012791"><ele>17.142857142857146</ele><time>2026-04-08T15:00:23.157Z</time></trkpt><trkpt lat="36.8461213" lon="15.1013614"><ele>18.0</ele><time>2026-04-08T15:00:29.996Z</time></trkpt><trkpt lat="36.8461182" lon="15.1014441"><ele>18.000000000000004</ele><time>2026-04-08T15:00:35.996Z</time></trkpt><trkpt lat="36.8461143" lon="15.1015408"><ele>18.0</ele><time>2026-04-08T15:00:41.547Z</time></trkpt><trkpt lat="36.8461388" lon="15.1016204"><ele>18.0</ele><time>2026-04-08T15:00:46.996Z</time></trkpt><trkpt lat="36.8461548" lon="15.1016986"><ele>18.0</ele><time>2026-04-08T15:00:52.934Z</time></trkpt><trkpt lat="36.8461829" lon="15.101781"><ele>18.0</ele><time>2026-04-08T15:00:58.997Z</time></trkpt><trkpt lat="36.8462254" lon="15.101845"><ele>18.000000000000004</ele><time>2026-04-08T15:01:04.997Z</time></trkpt><trkpt lat="36.8462797" lon="15.1019092"><ele>18.0</ele><time>2026-04-08T15:01:10.996Z</time></trkpt><trkpt lat="36.8462924" lon="15.1019955"><ele>18.714285714285715</ele><time>2026-04-08T15:01:14.996Z</time></trkpt><trkpt lat="36.8463061" lon="15.1020973"><ele>19.42857142857143</ele><time>2026-04-08T15:01:20.15Z</time></trkpt><trkpt lat="36.8463079" lon="15.1021795"><ele>20.142857142857146</ele><time>2026-04-08T15:01:24.249Z</time></trkpt><trkpt lat="36.8462958" lon="15.1022658"><ele>20.857142857142858</ele><time>2026-04-08T15:01:29.997Z</time></trkpt><trkpt lat="36.8462811" lon="15.1023499"><ele>21.57142857142857</ele><time>2026-04-08T15:01:37.151Z</time></trkpt><trkpt lat="36.8463208" lon="15.1024263"><ele>22.28571428571429</ele><time>2026-04-08T15:01:44.996Z</time></trkpt><trkpt lat="36.8463582" lon="15.1024923"><ele>23.0</ele><time>2026-04-08T15:01:50.115Z</time></trkpt><trkpt lat="36.8464243" lon="15.1025303"><ele>23.142857142857142</ele><time>2026-04-08T15:01:54.972Z</time></trkpt><trkpt lat="36.8464783" lon="15.1025793"><ele>23.285714285714285</ele><time>2026-04-08T15:01:59.018Z</time></trkpt><trkpt lat="36.8465492" lon="15.1026149"><ele>23.428571428571427</ele><time>2026-04-08T15:02:03.995Z</time></trkpt><trkpt lat="36.8466093" lon="15.1026555"><ele>23.57142857142857</ele><time>2026-04-08T15:02:08.995Z</time></trkpt><trkpt lat="36.8466617" lon="15.1027239"><ele>23.714285714285715</ele><time>2026-04-08T15:02:14.994Z</time></trkpt><trkpt lat="36.8467048" lon="15.1027904"><ele>23.857142857142854</ele><time>2026-04-08T15:02:19.994Z</time></trkpt><trkpt lat="36.8467488" lon="15.1028515"><ele>24.0</ele><time>2026-04-08T15:02:25.95Z</time></trkpt><trkpt lat="36.8467929" lon="15.1029184"><ele>24.71428571428571</ele><time>2026-04-08T15:02:31.996Z</time></trkpt><trkpt lat="36.8468359" lon="15.1029846"><ele>25.42857142857143</ele><time>2026-04-08T15:02:38.012Z</time></trkpt><trkpt lat="36.8468917" lon="15.1030247"><ele>26.142857142857146</ele><time>2026-04-08T15:02:43.996Z</time></trkpt><trkpt lat="36.8469605" lon="15.1030363"><ele>26.857142857142858</ele><time>2026-04-08T15:02:50.913Z</time></trkpt><trkpt lat="36.8470242" lon="15.1030389"><ele>27.571428571428573</ele><time>2026-04-08T15:02:55.994Z</time></trkpt><trkpt lat="36.8470912" lon="15.1030414"><ele>28.28571428571429</ele><time>2026-04-08T15:03:01.172Z</time></trkpt><trkpt lat="36.8470811" lon="15.1031534"><ele>29.000000000000004</ele><time>2026-04-08T15:03:02.995Z</time></trkpt><trkpt lat="36.8470991" lon="15.1032376"><ele>29.000000000000004</ele><time>2026-04-08T15:03:07.995Z</time></trkpt><trkpt lat="36.8471521" lon="15.103297"><ele>29.0</ele><time>2026-04-08T15:03:14.995Z</time></trkpt><trkpt lat="36.8472095" lon="15.1033513"><ele>29.000000000000004</ele><time>2026-04-08T15:03:19.929Z</time></trkpt><trkpt lat="36.8472588" lon="15.1034075"><ele>29.000000000000004</ele><time>2026-04-08T15:03:24.996Z</time></trkpt><trkpt lat="36.8473215" lon="15.1034559"><ele>29.0</ele><time>2026-04-08T15:03:30.994Z</time></trkpt><trkpt lat="36.8473767" lon="15.1035097"><ele>29.000000000000004</ele><time>2026-04-08T15:03:36.889Z</time></trkpt><trkpt lat="36.847446" lon="15.1035419"><ele>29.000000000000004</ele><time>2026-04-08T15:03:42.994Z</time></trkpt><trkpt lat="36.8475124" lon="15.1035686"><ele>29.000000000000004</ele><time>2026-04-08T15:03:49.142Z</time></trkpt><trkpt lat="36.8475681" lon="15.1036233"><ele>29.0</ele><time>2026-04-08T15:03:55.987Z</time></trkpt><trkpt lat="36.8476241" lon="15.1036724"><ele>29.000000000000004</ele><time>2026-04-08T15:04:01.028Z</time></trkpt><trkpt lat="36.847683" lon="15.1037273"><ele>29.000000000000004</ele><time>2026-04-08T15:04:06.489Z</time></trkpt><trkpt lat="36.8477357" lon="15.103771"><ele>29.0</ele><time>2026-04-08T15:04:12.032Z</time></trkpt><trkpt lat="36.8478032" lon="15.1038066"><ele>29.000000000000004</ele><time>2026-04-08T15:04:17.168Z</time></trkpt><trkpt lat="36.8478699" lon="15.1038442"><ele>29.000000000000004</ele><time>2026-04-08T15:04:22.995Z</time></trkpt><trkpt lat="36.8479279" lon="15.1039007"><ele>29.285714285714292</ele><time>2026-04-08T15:04:29.023Z</time></trkpt><trkpt lat="36.8479724" lon="15.1039665"><ele>29.571428571428573</ele><time>2026-04-08T15:04:34.329Z</time></trkpt><trkpt lat="36.8480256" lon="15.1040275"><ele>29.85714285714286</ele><time>2026-04-08T15:04:39.995Z</time></trkpt><trkpt lat="36.8480761" lon="15.1040786"><ele>30.142857142857146</ele><time>2026-04-08T15:04:45.995Z</time></trkpt><trkpt lat="36.8481306" lon="15.1041306"><ele>30.42857142857143</ele><time>2026-04-08T15:04:51.985Z</time></trkpt><trkpt lat="36.8481911" lon="15.1041782"><ele>30.714285714285715</ele><time>2026-04-08T15:04:58.151Z</time></trkpt><trkpt lat="36.8482473" lon="15.1042248"><ele>31.0</ele><time>2026-04-08T15:05:04.533Z</time></trkpt><trkpt lat="36.848305" lon="15.1042848"><ele>30.42857142857143</ele><time>2026-04-08T15:05:10.994Z</time></trkpt><trkpt lat="36.8483616" lon="15.1043407"><ele>29.85714285714286</ele><time>2026-04-08T15:05:16.996Z</time></trkpt><trkpt lat="36.8484163" lon="15.104393"><ele>29.285714285714285</ele><time>2026-04-08T15:05:23.291Z</time></trkpt><trkpt lat="36.8484766" lon="15.1044318"><ele>28.714285714285715</ele><time>2026-04-08T15:05:28.889Z</time></trkpt><trkpt lat="36.8485382" lon="15.1044707"><ele>28.142857142857142</ele><time>2026-04-08T15:05:34.954Z</time></trkpt><trkpt lat="36.8485858" lon="15.1045348"><ele>27.57142857142857</ele><time>2026-04-08T15:05:40.994Z</time></trkpt><trkpt lat="36.8486325" lon="15.1045936"><ele>27.0</ele><time>2026-04-08T15:05:47.205Z</time></trkpt><trkpt lat="36.8486737" lon="15.1046575"><ele>25.428571428571427</ele><time>2026-04-08T15:05:52.87Z</time></trkpt><trkpt lat="36.8487325" lon="15.1047326"><ele>23.857142857142854</ele><time>2026-04-08T15:06:00.292Z</time></trkpt><trkpt lat="36.8487877" lon="15.104783"><ele>22.285714285714285</ele><time>2026-04-08T15:06:06.268Z</time></trkpt><trkpt lat="36.848858" lon="15.1048337"><ele>20.714285714285715</ele><time>2026-04-08T15:06:12.95Z</time></trkpt><trkpt lat="36.8489218" lon="15.1048647"><ele>19.142857142857142</ele><time>2026-04-08T15:06:18.407Z</time></trkpt><trkpt lat="36.8489794" lon="15.1049188"><ele>17.57142857142857</ele><time>2026-04-08T15:06:24.689Z</time></trkpt><trkpt lat="36.8490266" lon="15.1049902"><ele>16.0</ele><time>2026-04-08T15:06:30.527Z</time></trkpt><trkpt lat="36.8490741" lon="15.1050515"><ele>15.571428571428571</ele><time>2026-04-08T15:06:36.176Z</time></trkpt><trkpt lat="36.8491339" lon="15.1051011"><ele>15.142857142857142</ele><time>2026-04-08T15:06:42.174Z</time></trkpt><trkpt lat="36.849165" lon="15.1051752"><ele>14.714285714285714</ele><time>2026-04-08T15:06:48.152Z</time></trkpt><trkpt lat="36.8492376" lon="15.1052076"><ele>14.285714285714285</ele><time>2026-04-08T15:06:52.648Z</time></trkpt><trkpt lat="36.8492875" lon="15.1052701"><ele>13.857142857142858</ele><time>2026-04-08T15:06:58.088Z</time></trkpt><trkpt lat="36.8493443" lon="15.105324"><ele>13.428571428571427</ele><time>2026-04-08T15:07:04.111Z</time></trkpt><trkpt lat="36.8494069" lon="15.1053679"><ele>13.0</ele><time>2026-04-08T15:07:09.996Z</time></trkpt><trkpt lat="36.8494727" lon="15.1054213"><ele>12.714285714285714</ele><time>2026-04-08T15:07:16.608Z</time></trkpt><trkpt lat="36.8495336" lon="15.1054642"><ele>12.428571428571429</ele><time>2026-04-08T15:07:21.995Z</time></trkpt><trkpt lat="36.8495952" lon="15.1055041"><ele>12.142857142857142</ele><time>2026-04-08T15:07:27.995Z</time></trkpt><trkpt lat="36.849648" lon="15.105547"><ele>11.857142857142858</ele><time>2026-04-08T15:07:32.996Z</time></trkpt><trkpt lat="36.8497095" lon="15.1055818"><ele>11.571428571428571</ele><time>2026-04-08T15:07:39.996Z</time></trkpt><trkpt lat="36.8497633" lon="15.1056283"><ele>11.285714285714286</ele><time>2026-04-08T15:07:45.995Z</time></trkpt><trkpt lat="36.8498233" lon="15.1056779"><ele>11.0</ele><time>2026-04-08T15:07:52.45Z</time></trkpt><trkpt lat="36.8498885" lon="15.1057139"><ele>11.285714285714286</ele><time>2026-04-08T15:07:58.281Z</time></trkpt><trkpt lat="36.8499463" lon="15.1057602"><ele>11.571428571428571</ele><time>2026-04-08T15:08:04.152Z</time></trkpt><trkpt lat="36.8499853" lon="15.105834"><ele>11.857142857142858</ele><time>2026-04-08T15:08:09.351Z</time></trkpt><trkpt lat="36.850035" lon="15.1058978"><ele>12.142857142857142</ele><time>2026-04-08T15:08:14.949Z</time></trkpt><trkpt lat="36.8501015" lon="15.1059393"><ele>12.428571428571429</ele><time>2026-04-08T15:08:21.995Z</time></trkpt><trkpt lat="36.850174" lon="15.1059486"><ele>12.714285714285714</ele><time>2026-04-08T15:08:28.164Z</time></trkpt><trkpt lat="36.8502361" lon="15.1060004"><ele>13.0</ele><time>2026-04-08T15:08:33.61Z</time></trkpt><trkpt lat="36.8503062" lon="15.1060387"><ele>13.142857142857142</ele><time>2026-04-08T15:08:39.971Z</time></trkpt><trkpt lat="36.8503565" lon="15.1060868"><ele>13.285714285714286</ele><time>2026-04-08T15:08:44.995Z</time></trkpt><trkpt lat="36.8504069" lon="15.1061462"><ele>13.428571428571429</ele><time>2026-04-08T15:08:49.995Z</time></trkpt><trkpt lat="36.8504434" lon="15.1062203"><ele>13.571428571428571</ele><time>2026-04-08T15:08:54.995Z</time></trkpt><trkpt lat="36.850477" lon="15.1062975"><ele>13.714285714285715</ele><time>2026-04-08T15:08:59.992Z</time></trkpt><trkpt lat="36.8505246" lon="15.1063657"><ele>13.857142857142858</ele><time>2026-04-08T15:09:06.003Z</time></trkpt><trkpt lat="36.8505939" lon="15.1064068"><ele>14.0</ele><time>2026-04-08T15:09:12.825Z</time></trkpt><trkpt lat="36.8506556" lon="15.1064443"><ele>14.0</ele><time>2026-04-08T15:09:18.534Z</time></trkpt><trkpt lat="36.8507114" lon="15.1065004"><ele>14.0</ele><time>2026-04-08T15:09:23.995Z</time></trkpt><trkpt lat="36.8507665" lon="15.106546"><ele>14.0</ele><time>2026-04-08T15:09:29.011Z</time></trkpt><trkpt lat="36.8508196" lon="15.1066054"><ele>14.0</ele><time>2026-04-08T15:09:34.493Z</time></trkpt><trkpt lat="36.8508707" lon="15.1066636"><ele>14.0</ele><time>2026-04-08T15:09:39.995Z</time></trkpt><trkpt lat="36.8509231" lon="15.1067154"><ele>14.0</ele><time>2026-04-08T15:09:45.907Z</time></trkpt><trkpt lat="36.8509856" lon="15.1067659"><ele>14.0</ele><time>2026-04-08T15:09:51.994Z</time></trkpt><trkpt lat="36.8510443" lon="15.1068221"><ele>15.333333333333334</ele><time>2026-04-08T15:09:58.493Z</time></trkpt><trkpt lat="36.8511048" lon="15.1068773"><ele>16.666666666666668</ele><time>2026-04-08T15:10:05.471Z</time></trkpt><trkpt lat="36.8510717" lon="15.1069654"><ele>18.0</ele><time>2026-04-08T15:10:13.194Z</time></trkpt><trkpt lat="36.8510299" lon="15.1070368"><ele>19.333333333333332</ele><time>2026-04-08T15:10:18.995Z</time></trkpt><trkpt lat="36.8509684" lon="15.1070886"><ele>20.666666666666664</ele><time>2026-04-08T15:10:24.995Z</time></trkpt><trkpt lat="36.8509714" lon="15.1069841"><ele>22.0</ele><time>2026-04-08T15:10:38.995Z</time></trkpt><trkpt lat="36.8509793" lon="15.1070714"><ele>20.857142857142858</ele><time>2026-04-08T15:10:55.185Z</time></trkpt><trkpt lat="36.8509118" lon="15.1071093"><ele>19.714285714285715</ele><time>2026-04-08T15:11:00.996Z</time></trkpt><trkpt lat="36.8508479" lon="15.1071391"><ele>18.57142857142857</ele><time>2026-04-08T15:11:05.994Z</time></trkpt><trkpt lat="36.8508151" lon="15.1072155"><ele>17.42857142857143</ele><time>2026-04-08T15:11:11.977Z</time></trkpt><trkpt lat="36.8508422" lon="15.1072898"><ele>16.285714285714285</ele><time>2026-04-08T15:11:17.995Z</time></trkpt><trkpt lat="36.8508545" lon="15.1073717"><ele>15.142857142857142</ele><time>2026-04-08T15:11:46.995Z</time></trkpt><trkpt lat="36.8508498" lon="15.1074727"><ele>14.0</ele><time>2026-04-08T15:11:52.996Z</time></trkpt><trkpt lat="36.8508372" lon="15.1075525"><ele>13.857142857142858</ele><time>2026-04-08T15:11:57.994Z</time></trkpt><trkpt lat="36.8508073" lon="15.1076265"><ele>13.714285714285715</ele><time>2026-04-08T15:12:02.994Z</time></trkpt><trkpt lat="36.8508062" lon="15.1077054"><ele>13.571428571428571</ele><time>2026-04-08T15:12:07.995Z</time></trkpt><trkpt lat="36.8507941" lon="15.1077827"><ele>13.428571428571429</ele><time>2026-04-08T15:12:13.001Z</time></trkpt><trkpt lat="36.8507848" lon="15.1078667"><ele>13.285714285714286</ele><time>2026-04-08T15:12:17.993Z</time></trkpt><trkpt lat="36.8507698" lon="15.1079457"><ele>13.142857142857142</ele><time>2026-04-08T15:12:23.814Z</time></trkpt><trkpt lat="36.8507579" lon="15.1080364"><ele>13.0</ele><time>2026-04-08T15:12:29.928Z</time></trkpt><trkpt lat="36.8507638" lon="15.1081151"><ele>13.0</ele><time>2026-04-08T15:12:35.028Z</time></trkpt><trkpt lat="36.8507486" lon="15.1082013"><ele>13.0</ele><time>2026-04-08T15:12:40.993Z</time></trkpt><trkpt lat="36.8507174" lon="15.1082719"><ele>13.0</ele><time>2026-04-08T15:12:46.969Z</time></trkpt><trkpt lat="36.8507033" lon="15.1083548"><ele>13.0</ele><time>2026-04-08T15:12:52.995Z</time></trkpt><trkpt lat="36.8506779" lon="15.1084339"><ele>13.0</ele><time>2026-04-08T15:12:59.029Z</time></trkpt><trkpt lat="36.8506632" lon="15.1085155"><ele>13.0</ele><time>2026-04-08T15:13:04.993Z</time></trkpt><trkpt lat="36.8506474" lon="15.1085924"><ele>13.0</ele><time>2026-04-08T15:13:09.993Z</time></trkpt><trkpt lat="36.850631" lon="15.1086815"><ele>13.142857142857142</ele><time>2026-04-08T15:13:16.019Z</time></trkpt><trkpt lat="36.8505882" lon="15.1087497"><ele>13.285714285714286</ele><time>2026-04-08T15:13:21.993Z</time></trkpt><trkpt lat="36.8505537" lon="15.1088276"><ele>13.428571428571429</ele><time>2026-04-08T15:13:27.994Z</time></trkpt><trkpt lat="36.850523" lon="15.1089179"><ele>13.571428571428571</ele><time>2026-04-08T15:13:33.997Z</time></trkpt><trkpt lat="36.8504948" lon="15.1089972"><ele>13.714285714285715</ele><time>2026-04-08T15:13:39.994Z</time></trkpt><trkpt lat="36.8504468" lon="15.1090755"><ele>13.857142857142858</ele><time>2026-04-08T15:13:45.993Z</time></trkpt><trkpt lat="36.8503985" lon="15.1091421"><ele>14.0</ele><time>2026-04-08T15:13:52.018Z</time></trkpt><trkpt lat="36.8503661" lon="15.1092124"><ele>14.142857142857142</ele><time>2026-04-08T15:13:56.994Z</time></trkpt><trkpt lat="36.8503392" lon="15.1092946"><ele>14.285714285714285</ele><time>2026-04-08T15:14:03.059Z</time></trkpt><trkpt lat="36.8503041" lon="15.1093602"><ele>14.428571428571429</ele><time>2026-04-08T15:14:07.994Z</time></trkpt><trkpt lat="36.8502655" lon="15.1094314"><ele>14.571428571428571</ele><time>2026-04-08T15:14:13.994Z</time></trkpt><trkpt lat="36.8502392" lon="15.1095142"><ele>14.714285714285714</ele><time>2026-04-08T15:14:18.994Z</time></trkpt><trkpt lat="36.8502138" lon="15.1095989"><ele>14.857142857142858</ele><time>2026-04-08T15:14:23.995Z</time></trkpt><trkpt lat="36.850234" lon="15.1096807"><ele>15.0</ele><time>2026-04-08T15:14:28.995Z</time></trkpt><trkpt lat="36.8502682" lon="15.1097589"><ele>15.0</ele><time>2026-04-08T15:14:34.028Z</time></trkpt><trkpt lat="36.8502492" lon="15.1098442"><ele>15.0</ele><time>2026-04-08T15:14:41.141Z</time></trkpt><trkpt lat="36.8502636" lon="15.1099367"><ele>15.0</ele><time>2026-04-08T15:14:46.975Z</time></trkpt><trkpt lat="36.850236" lon="15.1100327"><ele>15.0</ele><time>2026-04-08T15:14:50.994Z</time></trkpt><trkpt lat="36.8502232" lon="15.1101258"><ele>15.0</ele><time>2026-04-08T15:14:55.993Z</time></trkpt><trkpt lat="36.8501748" lon="15.1101921"><ele>15.0</ele><time>2026-04-08T15:15:02.171Z</time></trkpt><trkpt lat="36.8501141" lon="15.1102151"><ele>15.0</ele><time>2026-04-08T15:15:06.844Z</time></trkpt><trkpt lat="36.8500841" lon="15.1102922"><ele>14.428571428571429</ele><time>2026-04-08T15:15:12.778Z</time></trkpt><trkpt lat="36.8500733" lon="15.1103809"><ele>13.857142857142856</ele><time>2026-04-08T15:15:19.101Z</time></trkpt><trkpt lat="36.8500866" lon="15.1104723"><ele>13.285714285714285</ele><time>2026-04-08T15:15:24.994Z</time></trkpt><trkpt lat="36.8500667" lon="15.1105482"><ele>12.714285714285715</ele><time>2026-04-08T15:15:30.994Z</time></trkpt><trkpt lat="36.8500423" lon="15.1106233"><ele>12.142857142857142</ele><time>2026-04-08T15:15:35.995Z</time></trkpt><trkpt lat="36.850013" lon="15.1107011"><ele>11.571428571428571</ele><time>2026-04-08T15:15:40.994Z</time></trkpt><trkpt lat="36.8499889" lon="15.1107741"><ele>11.0</ele><time>2026-04-08T15:15:46.993Z</time></trkpt><trkpt lat="36.8499577" lon="15.1108551"><ele>11.0</ele><time>2026-04-08T15:15:54.488Z</time></trkpt><trkpt lat="36.849975" lon="15.1109425"><ele>11.0</ele><time>2026-04-08T15:16:03.789Z</time></trkpt><trkpt lat="36.8500139" lon="15.1110063"><ele>11.0</ele><time>2026-04-08T15:16:09.164Z</time></trkpt><trkpt lat="36.8500871" lon="15.1110037"><ele>11.0</ele><time>2026-04-08T15:16:14.788Z</time></trkpt><trkpt lat="36.850163" lon="15.1110079"><ele>11.0</ele><time>2026-04-08T15:16:18.538Z</time></trkpt><trkpt lat="36.8502156" lon="15.1110592"><ele>11.0</ele><time>2026-04-08T15:16:27.108Z</time></trkpt><trkpt lat="36.8502683" lon="15.1111098"><ele>11.0</ele><time>2026-04-08T15:16:33.993Z</time></trkpt><trkpt lat="36.8502801" lon="15.1111875"><ele>11.571428571428571</ele><time>2026-04-08T15:16:39.306Z</time></trkpt><trkpt lat="36.8502773" lon="15.1112722"><ele>12.142857142857142</ele><time>2026-04-08T15:16:44.493Z</time></trkpt><trkpt lat="36.8503101" lon="15.1113486"><ele>12.714285714285715</ele><time>2026-04-08T15:16:52.994Z</time></trkpt><trkpt lat="36.8503351" lon="15.1114234"><ele>13.285714285714285</ele><time>2026-04-08T15:17:00.83Z</time></trkpt><trkpt lat="36.8503629" lon="15.1115063"><ele>13.857142857142856</ele><time>2026-04-08T15:17:08.359Z</time></trkpt><trkpt lat="36.8503607" lon="15.111591"><ele>14.428571428571429</ele><time>2026-04-08T15:17:13.91Z</time></trkpt><trkpt lat="36.8503792" lon="15.1116776"><ele>15.0</ele><time>2026-04-08T15:17:21.032Z</time></trkpt><trkpt lat="36.850442" lon="15.1116961"><ele>15.0</ele><time>2026-04-08T15:17:28.089Z</time></trkpt><trkpt lat="36.8504742" lon="15.111774"><ele>15.0</ele><time>2026-04-08T15:17:46.37Z</time></trkpt><trkpt lat="36.8505042" lon="15.1118455"><ele>15.0</ele><time>2026-04-08T15:17:51.847Z</time></trkpt><trkpt lat="36.8505578" lon="15.1119112"><ele>15.0</ele><time>2026-04-08T15:18:00.419Z</time></trkpt><trkpt lat="36.8505924" lon="15.1119834"><ele>15.0</ele><time>2026-04-08T15:18:08.994Z</time></trkpt><trkpt lat="36.8506361" lon="15.1120425"><ele>15.0</ele><time>2026-04-08T15:18:14.954Z</time></trkpt><trkpt lat="36.8506885" lon="15.1121001"><ele>15.0</ele><time>2026-04-08T15:18:22.953Z</time></trkpt><trkpt lat="36.8507228" lon="15.1121794"><ele>15.0</ele><time>2026-04-08T15:19:14.995Z</time></trkpt><trkpt lat="36.8507706" lon="15.1121125"><ele>15.0</ele><time>2026-04-08T15:19:19.993Z</time></trkpt><trkpt lat="36.8507403" lon="15.1120262"><ele>15.0</ele><time>2026-04-08T15:19:23.994Z</time></trkpt><trkpt lat="36.8507294" lon="15.1119447"><ele>15.0</ele><time>2026-04-08T15:19:28.994Z</time></trkpt><trkpt lat="36.8508049" lon="15.1119825"><ele>15.0</ele><time>2026-04-08T15:19:39.427Z</time></trkpt><trkpt lat="36.8508374" lon="15.112058"><ele>15.0</ele><time>2026-04-08T15:19:47.249Z</time></trkpt><trkpt lat="36.8509064" lon="15.1120748"><ele>15.0</ele><time>2026-04-08T15:20:00.167Z</time></trkpt><trkpt lat="36.8509648" lon="15.1120259"><ele>15.428571428571429</ele><time>2026-04-08T15:20:04.748Z</time></trkpt><trkpt lat="36.8510237" lon="15.1120614"><ele>15.857142857142858</ele><time>2026-04-08T15:20:08.994Z</time></trkpt><trkpt lat="36.8510896" lon="15.1120814"><ele>16.285714285714285</ele><time>2026-04-08T15:20:13.17Z</time></trkpt><trkpt lat="36.8511339" lon="15.112138"><ele>16.714285714285715</ele><time>2026-04-08T15:20:26.91Z</time></trkpt><trkpt lat="36.8511534" lon="15.1122212"><ele>17.142857142857142</ele><time>2026-04-08T15:20:41.995Z</time></trkpt><trkpt lat="36.8511846" lon="15.1123091"><ele>17.571428571428573</ele><time>2026-04-08T15:21:17.753Z</time></trkpt><trkpt lat="36.8512489" lon="15.1123241"><ele>18.0</ele><time>2026-04-08T15:21:39.993Z</time></trkpt><trkpt lat="36.8513171" lon="15.1123625"><ele>16.857142857142858</ele><time>2026-04-08T15:21:46.993Z</time></trkpt><trkpt lat="36.8513632" lon="15.1124227"><ele>15.714285714285715</ele><time>2026-04-08T15:22:05.994Z</time></trkpt><trkpt lat="36.8514085" lon="15.1124815"><ele>14.571428571428573</ele><time>2026-04-08T15:22:37.993Z</time></trkpt><trkpt lat="36.8514483" lon="15.1125498"><ele>13.42857142857143</ele><time>2026-04-08T15:22:51.993Z</time></trkpt><trkpt lat="36.8515045" lon="15.1125926"><ele>12.285714285714286</ele><time>2026-04-08T15:23:08.993Z</time></trkpt><trkpt lat="36.851574" lon="15.1125722"><ele>11.142857142857142</ele><time>2026-04-08T15:24:07.993Z</time></trkpt><trkpt lat="36.851632" lon="15.1125361"><ele>10.0</ele><time>2026-04-08T15:24:21.993Z</time></trkpt><trkpt lat="36.8516807" lon="15.1124748"><ele>10.0</ele><time>2026-04-08T15:24:31.003Z</time></trkpt><trkpt lat="36.8517457" lon="15.1124645"><ele>10.0</ele><time>2026-04-08T15:24:42.993Z</time></trkpt><trkpt lat="36.8518038" lon="15.112499"><ele>10.0</ele><time>2026-04-08T15:24:52.993Z</time></trkpt><trkpt lat="36.8518714" lon="15.112516"><ele>10.0</ele><time>2026-04-08T15:25:00.992Z</time></trkpt><trkpt lat="36.851932" lon="15.112557"><ele>10.0</ele><time>2026-04-08T15:25:08.994Z</time></trkpt><trkpt lat="36.8519978" lon="15.1125751"><ele>10.0</ele><time>2026-04-08T15:25:15.914Z</time></trkpt><trkpt lat="36.8520676" lon="15.112599"><ele>10.0</ele><time>2026-04-08T15:25:23.999Z</time></trkpt><trkpt lat="36.8521306" lon="15.1126419"><ele>9.857142857142858</ele><time>2026-04-08T15:25:31.993Z</time></trkpt><trkpt lat="36.8521902" lon="15.1126727"><ele>9.714285714285715</ele><time>2026-04-08T15:25:37.992Z</time></trkpt><trkpt lat="36.8522414" lon="15.1127277"><ele>9.571428571428573</ele><time>2026-04-08T15:25:45.992Z</time></trkpt><trkpt lat="36.8522706" lon="15.1127993"><ele>9.428571428571429</ele><time>2026-04-08T15:25:53.993Z</time></trkpt><trkpt lat="36.8522854" lon="15.1128786"><ele>9.285714285714286</ele><time>2026-04-08T15:26:00.992Z</time></trkpt><trkpt lat="36.8523425" lon="15.1129148"><ele>9.142857142857144</ele><time>2026-04-08T15:26:07.992Z</time></trkpt><trkpt lat="36.8524092" lon="15.1129491"><ele>9.0</ele><time>2026-04-08T15:26:14.993Z</time></trkpt><trkpt lat="36.8524559" lon="15.1130143"><ele>9.000000000000002</ele><time>2026-04-08T15:26:22.992Z</time></trkpt><trkpt lat="36.8525215" lon="15.1130364"><ele>9.0</ele><time>2026-04-08T15:26:30.993Z</time></trkpt><trkpt lat="36.8525965" lon="15.1130463"><ele>9.0</ele><time>2026-04-08T15:26:37.992Z</time></trkpt><trkpt lat="36.8526587" lon="15.1130797"><ele>9.0</ele><time>2026-04-08T15:26:44.994Z</time></trkpt><trkpt lat="36.8527161" lon="15.1131237"><ele>9.0</ele><time>2026-04-08T15:26:52.993Z</time></trkpt><trkpt lat="36.8527849" lon="15.1131534"><ele>9.000000000000002</ele><time>2026-04-08T15:26:58.992Z</time></trkpt><trkpt lat="36.8528547" lon="15.1131433"><ele>9.0</ele><time>2026-04-08T15:27:04.987Z</time></trkpt><trkpt lat="36.8529112" lon="15.1131842"><ele>9.000000000000002</ele><time>2026-04-08T15:27:14.993Z</time></trkpt><trkpt lat="36.852984" lon="15.1132058"><ele>9.0</ele><time>2026-04-08T15:27:22.991Z</time></trkpt><trkpt lat="36.8530487" lon="15.1132164"><ele>9.0</ele><time>2026-04-08T15:27:28.984Z</time></trkpt><trkpt lat="36.8531014" lon="15.1132598"><ele>9.0</ele><time>2026-04-08T15:27:35.999Z</time></trkpt><trkpt lat="36.8531742" lon="15.1132813"><ele>9.0</ele><time>2026-04-08T15:27:42.993Z</time></trkpt><trkpt lat="36.8532277" lon="15.1133247"><ele>9.000000000000002</ele><time>2026-04-08T15:27:50.993Z</time></trkpt><trkpt lat="36.8532899" lon="15.1133393"><ele>9.0</ele><time>2026-04-08T15:27:57.992Z</time></trkpt><trkpt lat="36.853347" lon="15.1133884"><ele>9.000000000000002</ele><time>2026-04-08T15:28:08.933Z</time></trkpt><trkpt lat="36.853408" lon="15.1134206"><ele>9.0</ele><time>2026-04-08T15:28:16.914Z</time></trkpt><trkpt lat="36.853468" lon="15.1134735"><ele>9.0</ele><time>2026-04-08T15:28:22.927Z</time></trkpt><trkpt lat="36.8535263" lon="15.1135162"><ele>9.0</ele><time>2026-04-08T15:28:25.993Z</time></trkpt><trkpt lat="36.853583" lon="15.1135528"><ele>9.0</ele><time>2026-04-08T15:28:28.994Z</time></trkpt><trkpt lat="36.8536033" lon="15.113637"><ele>9.000000000000002</ele><time>2026-04-08T15:28:35.987Z</time></trkpt><trkpt lat="36.8536459" lon="15.1136971"><ele>9.0</ele><time>2026-04-08T15:28:41.992Z</time></trkpt><trkpt lat="36.8536987" lon="15.1137579"><ele>9.857142857142858</ele><time>2026-04-08T15:28:49.005Z</time></trkpt><trkpt lat="36.8537547" lon="15.1138112"><ele>10.714285714285715</ele><time>2026-04-08T15:28:56.993Z</time></trkpt><trkpt lat="36.8537984" lon="15.1137468"><ele>11.571428571428573</ele><time>2026-04-08T15:29:20.993Z</time></trkpt><trkpt lat="36.8538647" lon="15.1137343"><ele>12.428571428571429</ele><time>2026-04-08T15:29:26.993Z</time></trkpt><trkpt lat="36.853843" lon="15.1136563"><ele>13.285714285714285</ele><time>2026-04-08T15:29:32.946Z</time></trkpt><trkpt lat="36.8537867" lon="15.113607"><ele>14.142857142857144</ele><time>2026-04-08T15:29:37.993Z</time></trkpt><trkpt lat="36.8537643" lon="15.113533"><ele>15.0</ele><time>2026-04-08T15:29:42.911Z</time></trkpt><trkpt lat="36.8537348" lon="15.1134472"><ele>15.0</ele><time>2026-04-08T15:29:47.994Z</time></trkpt><trkpt lat="36.853687" lon="15.113384"><ele>15.0</ele><time>2026-04-08T15:29:52.995Z</time></trkpt><trkpt lat="36.85363" lon="15.1133407"><ele>15.0</ele><time>2026-04-08T15:29:58.862Z</time></trkpt><trkpt lat="36.8535802" lon="15.1132825"><ele>15.0</ele><time>2026-04-08T15:30:05.169Z</time></trkpt><trkpt lat="36.8535455" lon="15.1132005"><ele>15.0</ele><time>2026-04-08T15:30:12.172Z</time></trkpt><trkpt lat="36.8535808" lon="15.1131194"><ele>15.0</ele><time>2026-04-08T15:30:15.531Z</time></trkpt><trkpt lat="36.85355" lon="15.1130454"><ele>15.0</ele><time>2026-04-08T15:30:20.773Z</time></trkpt><trkpt lat="36.853542" lon="15.1129639"><ele>15.0</ele><time>2026-04-08T15:30:27.992Z</time></trkpt><trkpt lat="36.8535863" lon="15.1128969"><ele>15.0</ele><time>2026-04-08T15:30:36.993Z</time></trkpt><trkpt lat="36.8535869" lon="15.1128094"><ele>15.0</ele><time>2026-04-08T15:30:46.993Z</time></trkpt><trkpt lat="36.8535711" lon="15.1127283"><ele>15.0</ele><time>2026-04-08T15:30:52.993Z</time></trkpt><trkpt lat="36.8535766" lon="15.1126452"><ele>15.0</ele><time>2026-04-08T15:31:00.993Z</time></trkpt><trkpt lat="36.8536121" lon="15.1125751"><ele>15.0</ele><time>2026-04-08T15:31:07.967Z</time></trkpt><trkpt lat="36.8536689" lon="15.1125389"><ele>15.0</ele><time>2026-04-08T15:31:31.993Z</time></trkpt><trkpt lat="36.8536749" lon="15.1126295"><ele>15.0</ele><time>2026-04-08T15:31:38.99Z</time></trkpt><trkpt lat="36.8536419" lon="15.1126984"><ele>15.0</ele><time>2026-04-08T15:31:44.109Z</time></trkpt><trkpt lat="36.8536285" lon="15.112781"><ele>15.0</ele><time>2026-04-08T15:31:51.993Z</time></trkpt><trkpt lat="36.8536244" lon="15.1128693"><ele>15.0</ele><time>2026-04-08T15:31:57.993Z</time></trkpt><trkpt lat="36.8536504" lon="15.1129509"><ele>15.0</ele><time>2026-04-08T15:32:04.993Z</time></trkpt><trkpt lat="36.8536413" lon="15.1130418"><ele>15.0</ele><time>2026-04-08T15:32:11.992Z</time></trkpt><trkpt lat="36.8536162" lon="15.1131193"><ele>15.0</ele><time>2026-04-08T15:32:18.001Z</time></trkpt><trkpt lat="36.8536055" lon="15.1132003"><ele>15.0</ele><time>2026-04-08T15:32:26.993Z</time></trkpt><trkpt lat="36.8535436" lon="15.1131617"><ele>15.0</ele><time>2026-04-08T15:32:34.927Z</time></trkpt><trkpt lat="36.8535199" lon="15.1130863"><ele>15.0</ele><time>2026-04-08T15:32:39.993Z</time></trkpt><trkpt lat="36.8535042" lon="15.112998"><ele>15.0</ele><time>2026-04-08T15:32:45.994Z</time></trkpt><trkpt lat="36.8534659" lon="15.1129207"><ele>15.0</ele><time>2026-04-08T15:32:50.946Z</time></trkpt><trkpt lat="36.8534274" lon="15.1128434"><ele>15.0</ele><time>2026-04-08T15:32:57.173Z</time></trkpt><trkpt lat="36.8534139" lon="15.1127596"><ele>15.0</ele><time>2026-04-08T15:33:01.993Z</time></trkpt><trkpt lat="36.8534015" lon="15.1126803"><ele>14.428571428571429</ele><time>2026-04-08T15:33:06.993Z</time></trkpt><trkpt lat="36.8533993" lon="15.1125924"><ele>13.857142857142856</ele><time>2026-04-08T15:33:12.992Z</time></trkpt><trkpt lat="36.8534208" lon="15.1125084"><ele>13.285714285714285</ele><time>2026-04-08T15:33:17.973Z</time></trkpt><trkpt lat="36.8534103" lon="15.1124243"><ele>12.714285714285715</ele><time>2026-04-08T15:33:22.993Z</time></trkpt><trkpt lat="36.8533682" lon="15.1123501"><ele>12.142857142857142</ele><time>2026-04-08T15:33:28.993Z</time></trkpt><trkpt lat="36.8533444" lon="15.1122672"><ele>11.571428571428571</ele><time>2026-04-08T15:33:34.972Z</time></trkpt><trkpt lat="36.8533108" lon="15.1121956"><ele>11.0</ele><time>2026-04-08T15:33:40.992Z</time></trkpt><trkpt lat="36.8532789" lon="15.1121176"><ele>10.428571428571429</ele><time>2026-04-08T15:33:46.999Z</time></trkpt><trkpt lat="36.8532486" lon="15.1120345"><ele>9.857142857142858</ele><time>2026-04-08T15:33:52.994Z</time></trkpt><trkpt lat="36.853225" lon="15.1119579"><ele>9.285714285714285</ele><time>2026-04-08T15:33:58.992Z</time></trkpt><trkpt lat="36.8531984" lon="15.1118821"><ele>8.714285714285715</ele><time>2026-04-08T15:34:05.035Z</time></trkpt><trkpt lat="36.8531652" lon="15.1118024"><ele>8.142857142857142</ele><time>2026-04-08T15:34:10.993Z</time></trkpt><trkpt lat="36.8531369" lon="15.1117223"><ele>7.571428571428571</ele><time>2026-04-08T15:34:16.986Z</time></trkpt><trkpt lat="36.8531133" lon="15.1116381"><ele>7.0</ele><time>2026-04-08T15:34:22.992Z</time></trkpt><trkpt lat="36.853086" lon="15.1115591"><ele>7.0</ele><time>2026-04-08T15:34:28.908Z</time></trkpt><trkpt lat="36.8530372" lon="15.1114926"><ele>7.0</ele><time>2026-04-08T15:34:34.998Z</time></trkpt><trkpt lat="36.8529948" lon="15.1114161"><ele>7.0</ele><time>2026-04-08T15:34:40.993Z</time></trkpt><trkpt lat="36.8529557" lon="15.1113376"><ele>7.0</ele><time>2026-04-08T15:34:47.012Z</time></trkpt><trkpt lat="36.8528968" lon="15.1112859"><ele>7.0</ele><time>2026-04-08T15:34:52.993Z</time></trkpt><trkpt lat="36.8528322" lon="15.1112411"><ele>7.0</ele><time>2026-04-08T15:34:58.93Z</time></trkpt><trkpt lat="36.8527681" lon="15.1111964"><ele>7.0</ele><time>2026-04-08T15:35:04.993Z</time></trkpt><trkpt lat="36.8526993" lon="15.1111501"><ele>7.0</ele><time>2026-04-08T15:35:10.993Z</time></trkpt><trkpt lat="36.8526503" lon="15.111095"><ele>7.0</ele><time>2026-04-08T15:35:16.993Z</time></trkpt><trkpt lat="36.8526131" lon="15.1110242"><ele>7.0</ele><time>2026-04-08T15:35:22.996Z</time></trkpt><trkpt lat="36.8525885" lon="15.1109416"><ele>7.0</ele><time>2026-04-08T15:35:28.946Z</time></trkpt><trkpt lat="36.8525514" lon="15.1108735"><ele>7.0</ele><time>2026-04-08T15:35:34.994Z</time></trkpt><trkpt lat="36.8525234" lon="15.1107989"><ele>7.0</ele><time>2026-04-08T15:35:39.994Z</time></trkpt><trkpt lat="36.8524944" lon="15.1107247"><ele>7.0</ele><time>2026-04-08T15:35:44.993Z</time></trkpt><trkpt lat="36.8524578" lon="15.1106574"><ele>8.714285714285715</ele><time>2026-04-08T15:35:50.334Z</time></trkpt><trkpt lat="36.852434" lon="15.1105681"><ele>10.428571428571429</ele><time>2026-04-08T15:35:57.212Z</time></trkpt><trkpt lat="36.8524192" lon="15.1104698"><ele>12.142857142857142</ele><time>2026-04-08T15:36:04.992Z</time></trkpt><trkpt lat="36.85242" lon="15.1103887"><ele>13.857142857142858</ele><time>2026-04-08T15:36:09.992Z</time></trkpt><trkpt lat="36.8523959" lon="15.1103118"><ele>15.571428571428573</ele><time>2026-04-08T15:36:15.994Z</time></trkpt><trkpt lat="36.8523872" lon="15.1102318"><ele>17.285714285714285</ele><time>2026-04-08T15:36:20.993Z</time></trkpt><trkpt lat="36.8523894" lon="15.1101524"><ele>19.0</ele><time>2026-04-08T15:36:26.992Z</time></trkpt><trkpt lat="36.8523576" lon="15.1100759"><ele>19.0</ele><time>2026-04-08T15:36:33.993Z</time></trkpt><trkpt lat="36.852325" lon="15.1100054"><ele>19.0</ele><time>2026-04-08T15:36:39.932Z</time></trkpt><trkpt lat="36.8522639" lon="15.109962"><ele>19.0</ele><time>2026-04-08T15:36:46.992Z</time></trkpt><trkpt lat="36.852218" lon="15.1099064"><ele>19.0</ele><time>2026-04-08T15:36:52.994Z</time></trkpt><trkpt lat="36.852161" lon="15.1098587"><ele>19.0</ele><time>2026-04-08T15:36:58.997Z</time></trkpt><trkpt lat="36.8521009" lon="15.1098241"><ele>19.0</ele><time>2026-04-08T15:37:04.993Z</time></trkpt><trkpt lat="36.8520311" lon="15.109829"><ele>19.0</ele><time>2026-04-08T15:37:10.993Z</time></trkpt><trkpt lat="36.8519594" lon="15.1098069"><ele>19.428571428571427</ele><time>2026-04-08T15:37:16.992Z</time></trkpt><trkpt lat="36.8519016" lon="15.1097633"><ele>19.857142857142858</ele><time>2026-04-08T15:37:21.993Z</time></trkpt><trkpt lat="36.8518382" lon="15.1097253"><ele>20.285714285714285</ele><time>2026-04-08T15:37:29.012Z</time></trkpt><trkpt lat="36.8517789" lon="15.1096955"><ele>20.714285714285715</ele><time>2026-04-08T15:37:34.993Z</time></trkpt><trkpt lat="36.8517177" lon="15.1096643"><ele>21.142857142857142</ele><time>2026-04-08T15:37:41.993Z</time></trkpt><trkpt lat="36.8516392" lon="15.1096396"><ele>21.571428571428573</ele><time>2026-04-08T15:37:47.992Z</time></trkpt><trkpt lat="36.8515764" lon="15.109619"><ele>22.0</ele><time>2026-04-08T15:37:53.992Z</time></trkpt><trkpt lat="36.851511" lon="15.1095889"><ele>22.0</ele><time>2026-04-08T15:37:59.992Z</time></trkpt><trkpt lat="36.8514487" lon="15.1095529"><ele>22.0</ele><time>2026-04-08T15:38:06.027Z</time></trkpt><trkpt lat="36.8513889" lon="15.1095231"><ele>22.0</ele><time>2026-04-08T15:38:09.991Z</time></trkpt><trkpt lat="36.8513261" lon="15.1095016"><ele>22.0</ele><time>2026-04-08T15:38:15.991Z</time></trkpt><trkpt lat="36.8512572" lon="15.1094705"><ele>22.0</ele><time>2026-04-08T15:38:22.014Z</time></trkpt><trkpt lat="36.851192" lon="15.1094548"><ele>22.0</ele><time>2026-04-08T15:38:27.991Z</time></trkpt><trkpt lat="36.8511269" lon="15.1094292"><ele>22.0</ele><time>2026-04-08T15:38:33.992Z</time></trkpt><trkpt lat="36.851059" lon="15.1094052"><ele>22.0</ele><time>2026-04-08T15:38:40Z</time></trkpt><trkpt lat="36.8509879" lon="15.1093814"><ele>22.0</ele><time>2026-04-08T15:38:45.993Z</time></trkpt><trkpt lat="36.8509191" lon="15.1093959"><ele>22.0</ele><time>2026-04-08T15:38:51.991Z</time></trkpt><trkpt lat="36.8508632" lon="15.1094398"><ele>22.0</ele><time>2026-04-08T15:38:56.994Z</time></trkpt><trkpt lat="36.8507961" lon="15.1094168"><ele>22.0</ele><time>2026-04-08T15:39:00.991Z</time></trkpt><trkpt lat="36.850731" lon="15.1093828"><ele>22.0</ele><time>2026-04-08T15:39:05.992Z</time></trkpt><trkpt lat="36.8506704" lon="15.1093372"><ele>22.0</ele><time>2026-04-08T15:39:10.993Z</time></trkpt><trkpt lat="36.8506134" lon="15.1092998"><ele>21.0</ele><time>2026-04-08T15:39:15.992Z</time></trkpt><trkpt lat="36.8505469" lon="15.1092593"><ele>20.0</ele><time>2026-04-08T15:39:21.991Z</time></trkpt><trkpt lat="36.8504887" lon="15.1092246"><ele>19.0</ele><time>2026-04-08T15:39:26.992Z</time></trkpt><trkpt lat="36.8504386" lon="15.109172"><ele>18.0</ele><time>2026-04-08T15:39:32.991Z</time></trkpt><trkpt lat="36.8503652" lon="15.1091869"><ele>17.0</ele><time>2026-04-08T15:39:38.992Z</time></trkpt><trkpt lat="36.8503134" lon="15.1092366"><ele>16.0</ele><time>2026-04-08T15:39:43.991Z</time></trkpt><trkpt lat="36.8502537" lon="15.1092903"><ele>15.0</ele><time>2026-04-08T15:39:49.992Z</time></trkpt><trkpt lat="36.8501959" lon="15.1093311"><ele>15.0</ele><time>2026-04-08T15:39:54.993Z</time></trkpt><trkpt lat="36.8501343" lon="15.1093535"><ele>15.0</ele><time>2026-04-08T15:40:01.019Z</time></trkpt><trkpt lat="36.8500754" lon="15.1093894"><ele>9.0</ele><time>2026-04-08T15:40:06.992Z</time></trkpt><trkpt lat="36.8500057" lon="15.1093891"><ele>9.0</ele><time>2026-04-08T15:40:12.992Z</time></trkpt></trkseg></trk></gpx>